Observation data for Bootleg on 07/11/2018      Previous  Date       Current Mesonet Observations  Soil Data  Daily Summary Page  Observations in Plain Language
KBO1 110501Z 19013KT 23/14 A3022 RMK A01 T02270142  RH  059%=      5-min Rain = 0
KBO1 110502Z 19012KT 23/14 A3022 RMK A01 T02270142  RH  059%=      5-min Rain = 0
KBO1 110503Z 19013KT 23/14 A3022 RMK A01 T02270142  RH  059%=      5-min Rain = 0
KBO1 110504Z 19012KT 23/14 A3022 RMK A01 T02270142  RH  059%=      5-min Rain = 0
KBO1 110505Z 19012KT 23/14 A3022 RMK A01 T02270142  RH  059%=      5-min Rain = 0
KBO1 110506Z 19011KT 23/14 A3022 RMK A01 T02270143  RH  059%=      5-min Rain = 0
KBO1 110507Z 19012KT 23/14 A3022 RMK A01 T02270143  RH  059%=      5-min Rain = 0
KBO1 110508Z 19012KT 23/14 A3022 RMK A01 T02270143  RH  059%=      5-min Rain = 0
KBO1 110509Z 19012KT 23/14 A3022 RMK A01 T02270143  RH  059%=      5-min Rain = 0
KBO1 110510Z 19012KT 23/14 A3022 RMK A01 T02270144  RH  059%=      5-min Rain = 0
KBO1 110511Z 19011KT 23/14 A3022 RMK A01 T02270143  RH  059%=      5-min Rain = 0
KBO1 110512Z 19012KT 23/14 A3022 RMK A01 T02270143  RH  059%=      5-min Rain = 0
KBO1 110513Z 19013KT 23/14 A3022 RMK A01 T02270144  RH  059%=      5-min Rain = 0
KBO1 110514Z 19013KT 23/14 A3022 RMK A01 T02270144  RH  059%=      5-min Rain = 0
KBO1 110515Z 19012KT 23/14 A3022 RMK A01 T02260144  RH  059%=      5-min Rain = 0
KBO1 110516Z 19011KT 23/14 A3022 RMK A01 T02270144  RH  059%=      5-min Rain = 0
KBO1 110517Z 19012KT 23/14 A3022 RMK A01 T02260144  RH  060%=      5-min Rain = 0
KBO1 110518Z 19013KT 23/14 A3022 RMK A01 T02260144  RH  060%=      5-min Rain = 0
KBO1 110519Z 19013KT 23/14 A3022 RMK A01 T02260144  RH  060%=      5-min Rain = 0
KBO1 110520Z 19012KT 23/14 A3022 RMK A01 T02260144  RH  060%=      5-min Rain = 0
KBO1 110521Z 19010KT 23/15 A3022 RMK A01 T02260145  RH  060%=      5-min Rain = 0
KBO1 110522Z 19013KT 23/14 A3022 RMK A01 T02250144  RH  060%=      5-min Rain = 0
KBO1 110523Z 19012KT 23/14 A3022 RMK A01 T02250144  RH  060%=      5-min Rain = 0
KBO1 110524Z 19011KT 23/14 A3022 RMK A01 T02260144  RH  060%=      5-min Rain = 0
KBO1 110525Z 19011KT 23/14 A3022 RMK A01 T02260144  RH  060%=      5-min Rain = 0
KBO1 110526Z 19012KT 23/15 A3022 RMK A01 T02260145  RH  060%=      5-min Rain = 0
KBO1 110527Z 19011KT 23/15 A3022 RMK A01 T02260145  RH  060%=      5-min Rain = 0
KBO1 110528Z 19011KT 23/14 A3022 RMK A01 T02250144  RH  060%=      5-min Rain = 0
KBO1 110529Z 19011KT 23/14 A3022 RMK A01 T02250144  RH  060%=      5-min Rain = 0
KBO1 110530Z 19012KT 23/14 A3022 RMK A01 T02250144  RH  060%=      5-min Rain = 0
KBO1 110531Z 19012KT 23/14 A3022 RMK A01 T02250144  RH  060%=      5-min Rain = 0
KBO1 110532Z 19012KT 23/14 A3022 RMK A01 T02250144  RH  060%=      5-min Rain = 0
KBO1 110533Z 19011KT 23/14 A3022 RMK A01 T02250144  RH  060%=      5-min Rain = 0
KBO1 110534Z 19011KT 23/15 A3022 RMK A01 T02250145  RH  060%=      5-min Rain = 0
KBO1 110535Z 19011KT 22/14 A3022 RMK A01 T02240144  RH  060%=      5-min Rain = 0
KBO1 110536Z 19011KT 22/14 A3022 RMK A01 T02240144  RH  061%=      5-min Rain = 0
KBO1 110537Z 19011KT 22/14 A3022 RMK A01 T02230144  RH  061%=      5-min Rain = 0
KBO1 110538Z 19010KT 22/14 A3022 RMK A01 T02230144  RH  061%=      5-min Rain = 0
KBO1 110539Z 19011KT 22/14 A3022 RMK A01 T02230144  RH  061%=      5-min Rain = 0
KBO1 110540Z 19011KT 22/14 A3022 RMK A01 T02220144  RH  061%=      5-min Rain = 0
KBO1 110541Z 19011KT 22/14 A3022 RMK A01 T02230144  RH  061%=      5-min Rain = 0
KBO1 110542Z 19011KT 22/14 A3022 RMK A01 T02220144  RH  061%=      5-min Rain = 0
KBO1 110543Z 19012KT 22/14 A3022 RMK A01 T02230144  RH  061%=      5-min Rain = 0
KBO1 110544Z 19010KT 22/14 A3022 RMK A01 T02230144  RH  061%=      5-min Rain = 0
KBO1 110545Z 20011KT 22/14 A3022 RMK A01 T02220143  RH  061%=      5-min Rain = 0
KBO1 110546Z 19012KT 22/14 A3022 RMK A01 T02220143  RH  061%=      5-min Rain = 0
KBO1 110547Z 19012KT 22/14 A3022 RMK A01 T02230144  RH  061%=      5-min Rain = 0
KBO1 110548Z 19011KT 22/14 A3022 RMK A01 T02220143  RH  061%=      5-min Rain = 0
KBO1 110549Z 19011KT 22/14 A3022 RMK A01 T02220143  RH  061%=      5-min Rain = 0
KBO1 110550Z 19011KT 22/14 A3022 RMK A01 T02230144  RH  061%=      5-min Rain = 0
KBO1 110551Z 19011KT 22/14 A3022 RMK A01 T02220144  RH  061%=      5-min Rain = 0
KBO1 110552Z 19012KT 22/14 A3022 RMK A01 T02220144  RH  061%=      5-min Rain = 0
KBO1 110553Z 20011KT 22/14 A3022 RMK A01 T02210144  RH  061%=      5-min Rain = 0
KBO1 110554Z 20012KT 22/14 A3022 RMK A01 T02210144  RH  061%=      5-min Rain = 0
KBO1 110555Z 20011KT 22/14 A3022 RMK A01 T02210144  RH  061%=      5-min Rain = 0
KBO1 110556Z 20012KT 22/14 A3022 RMK A01 T02210144  RH  062%=      5-min Rain = 0
KBO1 110557Z 20012KT 22/14 A3022 RMK A01 T02210144  RH  062%=      5-min Rain = 0
KBO1 110558Z 20013KT 22/14 A3022 RMK A01 T02210144  RH  062%=      5-min Rain = 0
KBO1 110559Z 20012KT 22/14 A3022 RMK A01 T02210143  RH  062%=      5-min Rain = 0
KBO1 110600Z 20012KT 22/14 A3022 RMK A01 T02210143  RH  062%=      5-min Rain = 0
KBO1 110601Z 19013KT 22/14 A3022 RMK A01 T02200143  RH  062%=      5-min Rain = 0
KBO1 110602Z 19012KT 22/14 A3022 RMK A01 T02210144  RH  062%=      5-min Rain = 0
KBO1 110603Z 19013KT 22/15 A3022 RMK A01 T02210145  RH  062%=      5-min Rain = 0
KBO1 110604Z 19013KT 22/14 A3022 RMK A01 T02210144  RH  062%=      5-min Rain = 0
KBO1 110605Z 19012KT 22/14 A3022 RMK A01 T02210144  RH  062%=      5-min Rain = 0
KBO1 110606Z 19012KT 22/14 A3022 RMK A01 T02210144  RH  062%=      5-min Rain = 0
KBO1 110607Z 19012KT 22/14 A3022 RMK A01 T02200144  RH  062%=      5-min Rain = 0
KBO1 110608Z 19012KT 22/15 A3022 RMK A01 T02200145  RH  062%=      5-min Rain = 0
KBO1 110609Z 20012KT 22/14 A3022 RMK A01 T02200144  RH  062%=      5-min Rain = 0
KBO1 110610Z 20012KT 22/14 A3022 RMK A01 T02200144  RH  062%=      5-min Rain = 0
KBO1 110611Z 20011KT 22/14 A3022 RMK A01 T02200144  RH  062%=      5-min Rain = 0
KBO1 110612Z 20011KT 22/15 A3022 RMK A01 T02200145  RH  062%=      5-min Rain = 0
KBO1 110613Z 19012KT 22/15 A3022 RMK A01 T02190145  RH  063%=      5-min Rain = 0
KBO1 110614Z 19012KT 22/15 A3022 RMK A01 T02190145  RH  063%=      5-min Rain = 0
KBO1 110615Z 19012KT 22/14 A3022 RMK A01 T02190144  RH  063%=      5-min Rain = 0
KBO1 110616Z 19012KT 22/15 A3022 RMK A01 T02190145  RH  063%=      5-min Rain = 0
KBO1 110617Z 19012KT 22/15 A3022 RMK A01 T02190145  RH  063%=      5-min Rain = 0
KBO1 110618Z 20012KT 22/15 A3022 RMK A01 T02190145  RH  063%=      5-min Rain = 0
KBO1 110619Z 19011KT 22/15 A3022 RMK A01 T02190145  RH  063%=      5-min Rain = 0
KBO1 110620Z 20013KT 22/15 A3022 RMK A01 T02190145  RH  063%=      5-min Rain = 0
KBO1 110621Z 19012KT 22/15 A3022 RMK A01 T02190145  RH  063%=      5-min Rain = 0
KBO1 110622Z 20011KT 22/15 A3022 RMK A01 T02190145  RH  063%=      5-min Rain = 0
KBO1 110623Z 19011KT 22/15 A3022 RMK A01 T02190145  RH  063%=      5-min Rain = 0
KBO1 110624Z 19011KT 22/15 A3022 RMK A01 T02190145  RH  063%=      5-min Rain = 0
KBO1 110625Z 19011KT 22/15 A3022 RMK A01 T02190145  RH  063%=      5-min Rain = 0
KBO1 110626Z 19011KT 22/15 A3022 RMK A01 T02190146  RH  063%=      5-min Rain = 0
KBO1 110627Z 19011KT 22/15 A3022 RMK A01 T02180146  RH  063%=      5-min Rain = 0
KBO1 110628Z 19011KT 22/15 A3022 RMK A01 T02180146  RH  063%=      5-min Rain = 0
KBO1 110629Z 19011KT 22/15 A3022 RMK A01 T02180146  RH  063%=      5-min Rain = 0
KBO1 110630Z 19012KT 22/15 A3022 RMK A01 T02180146  RH  063%=      5-min Rain = 0
KBO1 110631Z 19013KT 22/15 A3022 RMK A01 T02180146  RH  064%=      5-min Rain = 0
KBO1 110632Z 19012KT 22/15 A3022 RMK A01 T02180146  RH  063%=      5-min Rain = 0
KBO1 110633Z 19013KT 22/15 A3022 RMK A01 T02180146  RH  063%=      5-min Rain = 0
KBO1 110634Z 19013KT 22/15 A3022 RMK A01 T02180146  RH  063%=      5-min Rain = 0
KBO1 110635Z 19013KT 22/15 A3022 RMK A01 T02190146  RH  063%=      5-min Rain = 0
KBO1 110636Z 19012KT 22/15 A3022 RMK A01 T02190146  RH  063%=      5-min Rain = 0
KBO1 110637Z 19013KT 22/15 A3022 RMK A01 T02190146  RH  063%=      5-min Rain = 0
KBO1 110638Z 19013KT 22/15 A3022 RMK A01 T02190146  RH  063%=      5-min Rain = 0
KBO1 110639Z 19012KT 22/15 A3022 RMK A01 T02190146  RH  063%=      5-min Rain = 0
KBO1 110640Z 19013KT 22/15 A3022 RMK A01 T02190146  RH  063%=      5-min Rain = 0
KBO1 110641Z 19013KT 22/15 A3022 RMK A01 T02190146  RH  063%=      5-min Rain = 0
KBO1 110642Z 19013KT 22/15 A3022 RMK A01 T02190146  RH  063%=      5-min Rain = 0
KBO1 110643Z 19012KT 22/15 A3022 RMK A01 T02190146  RH  063%=      5-min Rain = 0
KBO1 110644Z 19013KT 22/15 A3022 RMK A01 T02180146  RH  063%=      5-min Rain = 0
KBO1 110645Z 19013KT 22/15 A3022 RMK A01 T02180146  RH  063%=      5-min Rain = 0
KBO1 110646Z 19013KT 22/15 A3022 RMK A01 T02180146  RH  064%=      5-min Rain = 0
KBO1 110647Z 19013KT 22/15 A3022 RMK A01 T02180146  RH  064%=      5-min Rain = 0
KBO1 110648Z 19012KT 22/15 A3022 RMK A01 T02180146  RH  064%=      5-min Rain = 0
KBO1 110649Z 19013KT 22/15 A3021 RMK A01 T02180146  RH  064%=      5-min Rain = 0
KBO1 110650Z 19013KT 22/15 A3021 RMK A01 T02170146  RH  064%=      5-min Rain = 0
KBO1 110651Z 19014KT 22/15 A3022 RMK A01 T02180146  RH  064%=      5-min Rain = 0
KBO1 110652Z 19014KT 22/15 A3022 RMK A01 T02180146  RH  064%=      5-min Rain = 0
KBO1 110653Z 19013KT 22/15 A3022 RMK A01 T02180146  RH  064%=      5-min Rain = 0
KBO1 110654Z 19014KT 22/15 A3021 RMK A01 T02180146  RH  064%=      5-min Rain = 0
KBO1 110655Z 19014KT 22/15 A3021 RMK A01 T02170146  RH  064%=      5-min Rain = 0
KBO1 110656Z 19013KT 22/15 A3021 RMK A01 T02180146  RH  064%=      5-min Rain = 0
KBO1 110657Z 19013KT 22/15 A3021 RMK A01 T02180146  RH  064%=      5-min Rain = 0
KBO1 110658Z 19012KT 22/15 A3021 RMK A01 T02170146  RH  064%=      5-min Rain = 0
KBO1 110659Z 19012KT 22/15 A3021 RMK A01 T02170146  RH  064%=      5-min Rain = 0
KBO1 110700Z 19012KT 22/15 A3021 RMK A01 T02160146  RH  064%=      5-min Rain = 0
KBO1 110701Z 19012KT 22/15 A3021 RMK A01 T02160146  RH  064%=      5-min Rain = 0
KBO1 110702Z 19012KT 22/15 A3021 RMK A01 T02160146  RH  064%=      5-min Rain = 0
KBO1 110703Z 19012KT 22/15 A3021 RMK A01 T02160146  RH  065%=      5-min Rain = 0
KBO1 110704Z 19012KT 22/15 A3021 RMK A01 T02150146  RH  065%=      5-min Rain = 0
KBO1 110705Z 19012KT 22/15 A3021 RMK A01 T02150146  RH  065%=      5-min Rain = 0
KBO1 110706Z 20013KT 22/15 A3021 RMK A01 T02150146  RH  065%=      5-min Rain = 0
KBO1 110707Z 20012KT 22/15 A3021 RMK A01 T02150146  RH  065%=      5-min Rain = 0
KBO1 110708Z 20012KT 22/15 A3021 RMK A01 T02150147  RH  065%=      5-min Rain = 0
KBO1 110709Z 20012KT 21/15 A3021 RMK A01 T02140146  RH  065%=      5-min Rain = 0
KBO1 110710Z 20013KT 21/15 A3021 RMK A01 T02140146  RH  065%=      5-min Rain = 0
KBO1 110711Z 20013KT 21/15 A3021 RMK A01 T02140146  RH  065%=      5-min Rain = 0
KBO1 110712Z 20012KT 21/15 A3021 RMK A01 T02140146  RH  065%=      5-min Rain = 0
KBO1 110713Z 20012KT 21/15 A3021 RMK A01 T02140146  RH  065%=      5-min Rain = 0
KBO1 110714Z 20012KT 21/15 A3021 RMK A01 T02130146  RH  065%=      5-min Rain = 0
KBO1 110715Z 20012KT 21/15 A3021 RMK A01 T02130146  RH  065%=      5-min Rain = 0
KBO1 110716Z 20013KT 21/15 A3021 RMK A01 T02130146  RH  065%=      5-min Rain = 0
KBO1 110717Z 20012KT 21/15 A3021 RMK A01 T02130146  RH  065%=      5-min Rain = 0
KBO1 110718Z 20012KT 21/15 A3021 RMK A01 T02130146  RH  065%=      5-min Rain = 0
KBO1 110719Z 20012KT 21/15 A3021 RMK A01 T02130146  RH  065%=      5-min Rain = 0
KBO1 110720Z 19012KT 21/15 A3021 RMK A01 T02130146  RH  066%=      5-min Rain = 0
KBO1 110721Z 19012KT 21/15 A3021 RMK A01 T02130146  RH  066%=      5-min Rain = 0
KBO1 110722Z 19010KT 21/15 A3021 RMK A01 T02120146  RH  066%=      5-min Rain = 0
KBO1 110723Z 20011KT 21/15 A3021 RMK A01 T02110146  RH  066%=      5-min Rain = 0
KBO1 110724Z 20011KT 21/15 A3021 RMK A01 T02110146  RH  067%=      5-min Rain = 0
KBO1 110725Z 20011KT 21/15 A3021 RMK A01 T02110147  RH  067%=      5-min Rain = 0
KBO1 110726Z 20010KT 21/15 A3021 RMK A01 T02100146  RH  067%=      5-min Rain = 0
KBO1 110727Z 20011KT 21/15 A3021 RMK A01 T02100146  RH  067%=      5-min Rain = 0
KBO1 110728Z 20011KT 21/15 A3021 RMK A01 T02100147  RH  067%=      5-min Rain = 0
KBO1 110729Z 20011KT 21/15 A3021 RMK A01 T02100147  RH  067%=      5-min Rain = 0
KBO1 110730Z 19012KT 21/15 A3021 RMK A01 T02100147  RH  067%=      5-min Rain = 0
KBO1 110731Z 20011KT 21/15 A3021 RMK A01 T02100147  RH  067%=      5-min Rain = 0
KBO1 110732Z 20012KT 21/15 A3021 RMK A01 T02100147  RH  067%=      5-min Rain = 0
KBO1 110733Z 19012KT 21/15 A3021 RMK A01 T02100147  RH  067%=      5-min Rain = 0
KBO1 110734Z 20011KT 21/15 A3021 RMK A01 T02100147  RH  067%=      5-min Rain = 0
KBO1 110735Z 19011KT 21/15 A3021 RMK A01 T02110148  RH  067%=      5-min Rain = 0
KBO1 110736Z 20011KT 21/15 A3021 RMK A01 T02100147  RH  067%=      5-min Rain = 0
KBO1 110737Z 20011KT 21/15 A3021 RMK A01 T02100148  RH  068%=      5-min Rain = 0
KBO1 110738Z 19012KT 21/15 A3021 RMK A01 T02090148  RH  068%=      5-min Rain = 0
KBO1 110739Z 20011KT 21/15 A3021 RMK A01 T02090148  RH  068%=      5-min Rain = 0
KBO1 110740Z 20012KT 21/15 A3021 RMK A01 T02090148  RH  068%=      5-min Rain = 0
KBO1 110741Z 19012KT 21/15 A3021 RMK A01 T02090148  RH  068%=      5-min Rain = 0
KBO1 110742Z 19011KT 21/15 A3021 RMK A01 T02090148  RH  068%=      5-min Rain = 0
KBO1 110743Z 19012KT 21/15 A3021 RMK A01 T02090148  RH  068%=      5-min Rain = 0
KBO1 110744Z 19011KT 21/15 A3021 RMK A01 T02090148  RH  068%=      5-min Rain = 0
KBO1 110745Z 19011KT 21/15 A3021 RMK A01 T02080148  RH  068%=      5-min Rain = 0
KBO1 110746Z 19010KT 21/15 A3021 RMK A01 T02080148  RH  068%=      5-min Rain = 0
KBO1 110747Z 19010KT 21/15 A3021 RMK A01 T02070147  RH  069%=      5-min Rain = 0
KBO1 110748Z 19010KT 21/15 A3021 RMK A01 T02060147  RH  069%=      5-min Rain = 0
KBO1 110749Z 19010KT 21/15 A3021 RMK A01 T02050147  RH  069%=      5-min Rain = 0
KBO1 110750Z 19011KT 21/15 A3021 RMK A01 T02050148  RH  070%=      5-min Rain = 0
KBO1 110751Z 19011KT 21/15 A3021 RMK A01 T02050148  RH  070%=      5-min Rain = 0
KBO1 110752Z 19011KT 21/15 A3021 RMK A01 T02050148  RH  070%=      5-min Rain = 0
KBO1 110753Z 19012KT 21/15 A3021 RMK A01 T02050149  RH  070%=      5-min Rain = 0
KBO1 110754Z 19011KT 21/15 A3021 RMK A01 T02050149  RH  070%=      5-min Rain = 0
KBO1 110755Z 19011KT 21/15 A3021 RMK A01 T02060149  RH  070%=      5-min Rain = 0
KBO1 110756Z 19011KT 21/15 A3021 RMK A01 T02060150  RH  070%=      5-min Rain = 0
KBO1 110757Z 19011KT 21/15 A3021 RMK A01 T02050150  RH  070%=      5-min Rain = 0
KBO1 110758Z 19011KT 21/15 A3021 RMK A01 T02050150  RH  071%=      5-min Rain = 0
KBO1 110759Z 19011KT 21/15 A3021 RMK A01 T02050150  RH  071%=      5-min Rain = 0
KBO1 110800Z 19011KT 21/15 A3021 RMK A01 T02050150  RH  071%=      5-min Rain = 0
KBO1 110801Z 19011KT 21/15 A3021 RMK A01 T02050150  RH  071%=      5-min Rain = 0
KBO1 110802Z 19011KT 21/15 A3021 RMK A01 T02050151  RH  071%=      5-min Rain = 0
KBO1 110803Z 19011KT 21/15 A3021 RMK A01 T02050151  RH  071%=      5-min Rain = 0
KBO1 110804Z 19011KT 21/15 A3021 RMK A01 T02050151  RH  071%=      5-min Rain = 0
KBO1 110805Z 19010KT 20/15 A3021 RMK A01 T02040151  RH  071%=      5-min Rain = 0
KBO1 110806Z 19010KT 20/15 A3021 RMK A01 T02040151  RH  072%=      5-min Rain = 0
KBO1 110807Z 19011KT 20/15 A3021 RMK A01 T02040151  RH  072%=      5-min Rain = 0
KBO1 110808Z 19011KT 20/15 A3021 RMK A01 T02030151  RH  072%=      5-min Rain = 0
KBO1 110809Z 19010KT 20/15 A3021 RMK A01 T02030151  RH  072%=      5-min Rain = 0
KBO1 110810Z 19010KT 20/15 A3021 RMK A01 T02030151  RH  072%=      5-min Rain = 0
KBO1 110811Z 19010KT 20/15 A3021 RMK A01 T02020151  RH  072%=      5-min Rain = 0
KBO1 110812Z 19009KT 20/15 A3021 RMK A01 T02020151  RH  073%=      5-min Rain = 0
KBO1 110813Z 19010KT 20/15 A3021 RMK A01 T02010151  RH  073%=      5-min Rain = 0
KBO1 110814Z 19010KT 20/15 A3021 RMK A01 T02010151  RH  073%=      5-min Rain = 0
KBO1 110815Z 19010KT 20/15 A3021 RMK A01 T02000151  RH  073%=      5-min Rain = 0
KBO1 110816Z 19010KT 20/15 A3021 RMK A01 T02010151  RH  073%=      5-min Rain = 0
KBO1 110817Z 20010KT 20/15 A3021 RMK A01 T02000151  RH  073%=      5-min Rain = 0
KBO1 110818Z 19010KT 20/15 A3021 RMK A01 T02000151  RH  073%=      5-min Rain = 0
KBO1 110819Z 19010KT 20/15 A3021 RMK A01 T01990151  RH  074%=      5-min Rain = 0
KBO1 110820Z 19009KT 20/15 A3021 RMK A01 T02000151  RH  074%=      5-min Rain = 0
KBO1 110821Z 20010KT 20/15 A3021 RMK A01 T01990151  RH  074%=      5-min Rain = 0
KBO1 110822Z 19010KT 20/15 A3021 RMK A01 T01990151  RH  074%=      5-min Rain = 0
KBO1 110823Z 20009KT 20/15 A3021 RMK A01 T01990151  RH  074%=      5-min Rain = 0
KBO1 110824Z 20010KT 20/15 A302 RMK A01 T01980151  RH  074%=      5-min Rain = 0
KBO1 110825Z 20010KT 20/15 A302 RMK A01 T01980151  RH  074%=      5-min Rain = 0
KBO1 110826Z 20010KT 20/15 A302 RMK A01 T01980151  RH  074%=      5-min Rain = 0
KBO1 110827Z 20010KT 20/15 A302 RMK A01 T01980151  RH  074%=      5-min Rain = 0
KBO1 110828Z 20010KT 20/15 A302 RMK A01 T01980151  RH  074%=      5-min Rain = 0
KBO1 110829Z 20010KT 20/15 A302 RMK A01 T01980151  RH  074%=      5-min Rain = 0
KBO1 110830Z 20010KT 20/15 A302 RMK A01 T01990152  RH  074%=      5-min Rain = 0
KBO1 110831Z 20010KT 20/15 A302 RMK A01 T01990152  RH  074%=      5-min Rain = 0
KBO1 110832Z 20010KT 20/15 A302 RMK A01 T01990152  RH  074%=      5-min Rain = 0
KBO1 110833Z 20010KT 20/15 A302 RMK A01 T01980152  RH  074%=      5-min Rain = 0
KBO1 110834Z 20010KT 20/15 A302 RMK A01 T01980152  RH  075%=      5-min Rain = 0
KBO1 110835Z 19010KT 20/15 A302 RMK A01 T01980152  RH  075%=      5-min Rain = 0
KBO1 110836Z 19010KT 20/15 A302 RMK A01 T01980152  RH  075%=      5-min Rain = 0
KBO1 110837Z 19009KT 20/15 A302 RMK A01 T01970152  RH  075%=      5-min Rain = 0
KBO1 110838Z 19010KT 20/15 A302 RMK A01 T01970152  RH  075%=      5-min Rain = 0
KBO1 110839Z 19009KT 20/15 A302 RMK A01 T01970152  RH  075%=      5-min Rain = 0
KBO1 110840Z 18010KT 20/15 A302 RMK A01 T01970152  RH  075%=      5-min Rain = 0
KBO1 110841Z 18009KT 20/15 A302 RMK A01 T01970152  RH  075%=      5-min Rain = 0
KBO1 110842Z 18009KT 20/15 A302 RMK A01 T01960152  RH  075%=      5-min Rain = 0
KBO1 110843Z 19009KT 20/15 A302 RMK A01 T01960152  RH  076%=      5-min Rain = 0
KBO1 110844Z 19009KT 20/15 A302 RMK A01 T01960152  RH  076%=      5-min Rain = 0
KBO1 110845Z 19009KT 20/15 A302 RMK A01 T01960152  RH  076%=      5-min Rain = 0
KBO1 110846Z 19010KT 20/15 A302 RMK A01 T01950152  RH  076%=      5-min Rain = 0
KBO1 110847Z 19009KT 20/15 A302 RMK A01 T01950152  RH  076%=      5-min Rain = 0
KBO1 110848Z 19009KT 20/15 A302 RMK A01 T01950152  RH  076%=      5-min Rain = 0
KBO1 110849Z 19009KT 20/15 A302 RMK A01 T01950152  RH  076%=      5-min Rain = 0
KBO1 110850Z 19009KT 20/15 A302 RMK A01 T01950152  RH  076%=      5-min Rain = 0
KBO1 110851Z 19009KT 19/15 A302 RMK A01 T01940151  RH  076%=      5-min Rain = 0
KBO1 110852Z 19010KT 19/15 A302 RMK A01 T01940152  RH  076%=      5-min Rain = 0
KBO1 110853Z 19009KT 19/15 A302 RMK A01 T01940151  RH  076%=      5-min Rain = 0
KBO1 110854Z 19009KT 19/15 A302 RMK A01 T01930151  RH  076%=      5-min Rain = 0
KBO1 110855Z 19010KT 19/15 A302 RMK A01 T01930151  RH  077%=      5-min Rain = 0
KBO1 110856Z 19009KT 19/15 A302 RMK A01 T01930151  RH  077%=      5-min Rain = 0
KBO1 110857Z 19009KT 19/15 A302 RMK A01 T01930151  RH  077%=      5-min Rain = 0
KBO1 110858Z 19009KT 19/15 A302 RMK A01 T01930151  RH  077%=      5-min Rain = 0
KBO1 110859Z 19008KT 19/15 A302 RMK A01 T01920151  RH  077%=      5-min Rain = 0
KBO1 110900Z 19009KT 19/15 A302 RMK A01 T01910150  RH  077%=      5-min Rain = 0
KBO1 110901Z 19008KT 19/15 A302 RMK A01 T01910150  RH  077%=      5-min Rain = 0
KBO1 110902Z 19008KT 19/15 A302 RMK A01 T01900151  RH  078%=      5-min Rain = 0
KBO1 110903Z 19008KT 19/15 A302 RMK A01 T01900150  RH  078%=      5-min Rain = 0
KBO1 110904Z 19008KT 19/15 A302 RMK A01 T01900150  RH  078%=      5-min Rain = 0
KBO1 110905Z 19008KT 19/15 A302 RMK A01 T01890150  RH  078%=      5-min Rain = 0
KBO1 110906Z 19009KT 19/15 A302 RMK A01 T01890150  RH  078%=      5-min Rain = 0
KBO1 110907Z 19009KT 19/15 A302 RMK A01 T01900151  RH  078%=      5-min Rain = 0
KBO1 110908Z 19009KT 19/15 A302 RMK A01 T01890151  RH  078%=      5-min Rain = 0
KBO1 110909Z 19009KT 19/15 A302 RMK A01 T01890151  RH  078%=      5-min Rain = 0
KBO1 110910Z 19010KT 19/15 A302 RMK A01 T01890150  RH  078%=      5-min Rain = 0
KBO1 110911Z 19009KT 19/15 A302 RMK A01 T01890151  RH  078%=      5-min Rain = 0
KBO1 110912Z 19009KT 19/15 A302 RMK A01 T01890150  RH  078%=      5-min Rain = 0
KBO1 110913Z 19010KT 19/15 A302 RMK A01 T01890151  RH  078%=      5-min Rain = 0
KBO1 110914Z 19010KT 19/15 A302 RMK A01 T01900151  RH  078%=      5-min Rain = 0
KBO1 110915Z 19009KT 19/15 A302 RMK A01 T01900151  RH  078%=      5-min Rain = 0
KBO1 110916Z 19009KT 19/15 A302 RMK A01 T01900151  RH  078%=      5-min Rain = 0
KBO1 110917Z 19009KT 19/15 A302 RMK A01 T01900151  RH  078%=      5-min Rain = 0
KBO1 110918Z 19009KT 19/15 A302 RMK A01 T01900151  RH  078%=      5-min Rain = 0
KBO1 110919Z 19009KT 19/15 A302 RMK A01 T01900151  RH  078%=      5-min Rain = 0
KBO1 110920Z 19009KT 19/15 A302 RMK A01 T01900151  RH  078%=      5-min Rain = 0
KBO1 110921Z 19009KT 19/15 A302 RMK A01 T01890151  RH  078%=      5-min Rain = 0
KBO1 110922Z 19008KT 19/15 A302 RMK A01 T01890151  RH  078%=      5-min Rain = 0
KBO1 110923Z 19009KT 19/15 A302 RMK A01 T01890151  RH  079%=      5-min Rain = 0
KBO1 110924Z 19008KT 19/15 A302 RMK A01 T01880151  RH  079%=      5-min Rain = 0
KBO1 110925Z 19008KT 19/15 A302 RMK A01 T01880151  RH  079%=      5-min Rain = 0
KBO1 110926Z 19009KT 19/15 A302 RMK A01 T01880151  RH  079%=      5-min Rain = 0
KBO1 110927Z 19009KT 19/15 A302 RMK A01 T01880151  RH  079%=      5-min Rain = 0
KBO1 110928Z 19008KT 19/15 A302 RMK A01 T01880151  RH  079%=      5-min Rain = 0
KBO1 110929Z 19009KT 19/15 A302 RMK A01 T01880151  RH  079%=      5-min Rain = 0
KBO1 110930Z 19008KT 19/15 A302 RMK A01 T01870150  RH  079%=      5-min Rain = 0
KBO1 110931Z 19008KT 19/15 A302 RMK A01 T01880150  RH  079%=      5-min Rain = 0
KBO1 110932Z 19008KT 19/15 A302 RMK A01 T01870150  RH  079%=      5-min Rain = 0
KBO1 110933Z 19009KT 19/15 A302 RMK A01 T01870150  RH  079%=      5-min Rain = 0
KBO1 110934Z 19008KT 19/15 A302 RMK A01 T01870150  RH  079%=      5-min Rain = 0
KBO1 110935Z 19008KT 19/15 A302 RMK A01 T01860150  RH  079%=      5-min Rain = 0
KBO1 110936Z 19009KT 19/15 A302 RMK A01 T01860150  RH  079%=      5-min Rain = 0
KBO1 110937Z 19008KT 19/15 A302 RMK A01 T01860150  RH  079%=      5-min Rain = 0
KBO1 110938Z 19008KT 19/15 A302 RMK A01 T01860149  RH  079%=      5-min Rain = 0
KBO1 110939Z 19009KT 19/15 A302 RMK A01 T01860150  RH  079%=      5-min Rain = 0
KBO1 110940Z 18009KT 19/15 A302 RMK A01 T01860150  RH  080%=      5-min Rain = 0
KBO1 110941Z 19009KT 19/15 A302 RMK A01 T01850149  RH  080%=      5-min Rain = 0
KBO1 110942Z 18008KT 19/15 A302 RMK A01 T01850150  RH  080%=      5-min Rain = 0
KBO1 110943Z 18009KT 19/15 A302 RMK A01 T01850150  RH  080%=      5-min Rain = 0
KBO1 110944Z 18009KT 19/15 A302 RMK A01 T01850149  RH  080%=      5-min Rain = 0
KBO1 110945Z 18009KT 19/15 A302 RMK A01 T01860150  RH  079%=      5-min Rain = 0
KBO1 110946Z 18009KT 19/15 A302 RMK A01 T01860150  RH  079%=      5-min Rain = 0
KBO1 110947Z 18009KT 19/15 A302 RMK A01 T01860150  RH  079%=      5-min Rain = 0
KBO1 110948Z 18008KT 19/15 A302 RMK A01 T01870150  RH  079%=      5-min Rain = 0
KBO1 110949Z 18008KT 19/15 A302 RMK A01 T01860150  RH  079%=      5-min Rain = 0
KBO1 110950Z 18009KT 19/15 A302 RMK A01 T01850150  RH  080%=      5-min Rain = 0
KBO1 110951Z 18009KT 19/15 A302 RMK A01 T01850150  RH  080%=      5-min Rain = 0
KBO1 110952Z 19009KT 18/15 A302 RMK A01 T01840150  RH  080%=      5-min Rain = 0
KBO1 110953Z 19009KT 18/15 A302 RMK A01 T01840151  RH  081%=      5-min Rain = 0
KBO1 110954Z 19009KT 19/15 A302 RMK A01 T01850151  RH  080%=      5-min Rain = 0
KBO1 110955Z 19009KT 19/15 A302 RMK A01 T01860151  RH  080%=      5-min Rain = 0
KBO1 110956Z 19009KT 19/15 A302 RMK A01 T01860151  RH  080%=      5-min Rain = 0
KBO1 110957Z 19009KT 19/15 A302 RMK A01 T01860151  RH  080%=      5-min Rain = 0
KBO1 110958Z 20009KT 19/15 A302 RMK A01 T01860151  RH  080%=      5-min Rain = 0
KBO1 110959Z 20009KT 19/15 A302 RMK A01 T01860151  RH  080%=      5-min Rain = 0
KBO1 111000Z 20009KT 19/15 A302 RMK A01 T01860151  RH  080%=      5-min Rain = 0
KBO1 111001Z 20008KT 19/15 A302 RMK A01 T01860151  RH  080%=      5-min Rain = 0
KBO1 111002Z 20008KT 19/15 A302 RMK A01 T01860151  RH  080%=      5-min Rain = 0
KBO1 111003Z 21008KT 19/15 A302 RMK A01 T01860151  RH  080%=      5-min Rain = 0
KBO1 111004Z 20008KT 19/15 A302 RMK A01 T01860151  RH  080%=      5-min Rain = 0
KBO1 111005Z 21007KT 19/15 A302 RMK A01 T01850151  RH  080%=      5-min Rain = 0
KBO1 111006Z 21007KT 19/15 A302 RMK A01 T01850151  RH  081%=      5-min Rain = 0
KBO1 111007Z 21007KT 19/15 A302 RMK A01 T01850151  RH  081%=      5-min Rain = 0
KBO1 111008Z 21007KT 18/15 A302 RMK A01 T01840151  RH  081%=      5-min Rain = 0
KBO1 111009Z 21007KT 18/15 A302 RMK A01 T01840151  RH  081%=      5-min Rain = 0
KBO1 111010Z 22007KT 18/15 A302 RMK A01 T01840151  RH  081%=      5-min Rain = 0
KBO1 111011Z 22007KT 18/15 A302 RMK A01 T01830151  RH  081%=      5-min Rain = 0
KBO1 111012Z 22006KT 18/15 A302 RMK A01 T01830151  RH  081%=      5-min Rain = 0
KBO1 111013Z 23006KT 18/15 A302 RMK A01 T01820150  RH  081%=      5-min Rain = 0
KBO1 111014Z 22006KT 18/15 A302 RMK A01 T01810149  RH  082%=      5-min Rain = 0
KBO1 111015Z 22007KT 18/15 A302 RMK A01 T01800148  RH  082%=      5-min Rain = 0
KBO1 111016Z 22006KT 18/15 A302 RMK A01 T01790148  RH  082%=      5-min Rain = 0
KBO1 111017Z 22006KT 18/15 A302 RMK A01 T01780148  RH  082%=      5-min Rain = 0
KBO1 111018Z 22006KT 18/15 A302 RMK A01 T01780148  RH  083%=      5-min Rain = 0
KBO1 111019Z 22006KT 18/15 A302 RMK A01 T01770148  RH  083%=      5-min Rain = 0
KBO1 111020Z 22006KT 18/15 A302 RMK A01 T01770147  RH  083%=      5-min Rain = 0
KBO1 111021Z 22006KT 18/15 A302 RMK A01 T01760147  RH  083%=      5-min Rain = 0
KBO1 111022Z 22006KT 18/15 A302 RMK A01 T01760147  RH  083%=      5-min Rain = 0
KBO1 111023Z 22006KT 18/15 A302 RMK A01 T01750147  RH  083%=      5-min Rain = 0
KBO1 111024Z 22006KT 17/15 A302 RMK A01 T01740146  RH  083%=      5-min Rain = 0
KBO1 111025Z 22006KT 17/15 A302 RMK A01 T01740146  RH  083%=      5-min Rain = 0
KBO1 111026Z 22007KT 17/15 A302 RMK A01 T01730146  RH  084%=      5-min Rain = 0
KBO1 111027Z 23006KT 17/15 A302 RMK A01 T01730145  RH  084%=      5-min Rain = 0
KBO1 111028Z 23006KT 17/14 A302 RMK A01 T01720144  RH  084%=      5-min Rain = 0
KBO1 111029Z 23006KT 17/14 A302 RMK A01 T01710144  RH  084%=      5-min Rain = 0
KBO1 111030Z 23006KT 17/14 A302 RMK A01 T01700143  RH  084%=      5-min Rain = 0
KBO1 111031Z 23006KT 17/14 A302 RMK A01 T01690143  RH  084%=      5-min Rain = 0
KBO1 111032Z 23006KT 17/14 A302 RMK A01 T01690143  RH  085%=      5-min Rain = 0
KBO1 111033Z 23006KT 17/14 A302 RMK A01 T01690143  RH  085%=      5-min Rain = 0
KBO1 111034Z 23006KT 17/14 A302 RMK A01 T01680142  RH  085%=      5-min Rain = 0
KBO1 111035Z 23006KT 17/14 A302 RMK A01 T01680142  RH  085%=      5-min Rain = 0
KBO1 111036Z 23006KT 17/14 A302 RMK A01 T01680142  RH  085%=      5-min Rain = 0
KBO1 111037Z 23006KT 17/14 A302 RMK A01 T01670141  RH  085%=      5-min Rain = 0
KBO1 111038Z 23006KT 17/14 A302 RMK A01 T01670141  RH  085%=      5-min Rain = 0
KBO1 111039Z 22007KT 17/14 A302 RMK A01 T01660141  RH  085%=      5-min Rain = 0
KBO1 111040Z 22007KT 17/14 A302 RMK A01 T01660141  RH  085%=      5-min Rain = 0
KBO1 111041Z 23007KT 17/14 A302 RMK A01 T01660141  RH  085%=      5-min Rain = 0
KBO1 111042Z 23007KT 17/14 A302 RMK A01 T01660141  RH  085%=      5-min Rain = 0
KBO1 111043Z 23007KT 17/14 A302 RMK A01 T01660141  RH  085%=      5-min Rain = 0
KBO1 111044Z 23007KT 17/14 A302 RMK A01 T01660141  RH  085%=      5-min Rain = 0
KBO1 111045Z 23007KT 17/14 A302 RMK A01 T01660141  RH  085%=      5-min Rain = 0
KBO1 111046Z 23007KT 17/14 A302 RMK A01 T01660141  RH  085%=      5-min Rain = 0
KBO1 111047Z 22007KT 17/14 A302 RMK A01 T01660141  RH  085%=      5-min Rain = 0
KBO1 111048Z 22007KT 17/14 A302 RMK A01 T01650141  RH  086%=      5-min Rain = 0
KBO1 111049Z 22007KT 17/14 A302 RMK A01 T01650141  RH  086%=      5-min Rain = 0
KBO1 111050Z 22007KT 17/14 A302 RMK A01 T01650141  RH  086%=      5-min Rain = 0
KBO1 111051Z 22007KT 16/14 A302 RMK A01 T01640141  RH  086%=      5-min Rain = 0
KBO1 111052Z 22006KT 16/14 A302 RMK A01 T01640141  RH  086%=      5-min Rain = 0
KBO1 111053Z 22006KT 16/14 A302 RMK A01 T01640141  RH  086%=      5-min Rain = 0
KBO1 111054Z 22006KT 16/14 A302 RMK A01 T01640140  RH  086%=      5-min Rain = 0
KBO1 111055Z 22006KT 16/14 A302 RMK A01 T01630140  RH  086%=      5-min Rain = 0
KBO1 111056Z 22006KT 16/14 A302 RMK A01 T01630140  RH  086%=      5-min Rain = 0
KBO1 111057Z 22007KT 16/14 A302 RMK A01 T01630140  RH  086%=      5-min Rain = 0
KBO1 111058Z 21007KT 16/14 A302 RMK A01 T01620140  RH  086%=      5-min Rain = 0
KBO1 111059Z 21007KT 16/14 A302 RMK A01 T01620140  RH  087%=      5-min Rain = 0
KBO1 111100Z 21007KT 16/14 A302 RMK A01 T01620140  RH  087%=      5-min Rain = 0
KBO1 111101Z 21007KT 16/14 A302 RMK A01 T01620140  RH  087%=      5-min Rain = 0
KBO1 111102Z 21008KT 16/14 A302 RMK A01 T01620140  RH  087%=      5-min Rain = 0
KBO1 111103Z 21008KT 16/14 A302 RMK A01 T01620140  RH  087%=      5-min Rain = 0
KBO1 111104Z 22007KT 16/14 A302 RMK A01 T01620140  RH  087%=      5-min Rain = 0
KBO1 111105Z 21007KT 16/14 A302 RMK A01 T01620141  RH  087%=      5-min Rain = 0
KBO1 111106Z 21007KT 16/14 A302 RMK A01 T01620141  RH  087%=      5-min Rain = 0
KBO1 111107Z 21006KT 16/14 A302 RMK A01 T01620141  RH  087%=      5-min Rain = 0
KBO1 111108Z 21006KT 16/14 A302 RMK A01 T01620141  RH  087%=      5-min Rain = 0
KBO1 111109Z 21006KT 16/14 A302 RMK A01 T01630142  RH  087%=      5-min Rain = 0
KBO1 111110Z 21005KT 16/14 A302 RMK A01 T01630143  RH  088%=      5-min Rain = 0
KBO1 111111Z 20006KT 16/14 A302 RMK A01 T01630143  RH  088%=      5-min Rain = 0
KBO1 111112Z 20006KT 16/14 A302 RMK A01 T01640143  RH  088%=      5-min Rain = 0
KBO1 111113Z 20006KT 16/14 A302 RMK A01 T01640143  RH  088%=      5-min Rain = 0
KBO1 111114Z 20006KT 16/14 A302 RMK A01 T01640143  RH  088%=      5-min Rain = 0
KBO1 111115Z 20006KT 16/14 A302 RMK A01 T01640143  RH  087%=      5-min Rain = 0
KBO1 111116Z 21006KT 16/14 A302 RMK A01 T01640143  RH  087%=      5-min Rain = 0
KBO1 111117Z 21007KT 16/14 A302 RMK A01 T01640143  RH  087%=      5-min Rain = 0
KBO1 111118Z 21007KT 16/14 A302 RMK A01 T01640143  RH  087%=      5-min Rain = 0
KBO1 111119Z 21007KT 16/14 A302 RMK A01 T01640142  RH  087%=      5-min Rain = 0
KBO1 111120Z 21007KT 16/14 A302 RMK A01 T01630143  RH  088%=      5-min Rain = 0
KBO1 111121Z 21007KT 16/14 A3021 RMK A01 T01630143  RH  088%=      5-min Rain = 0
KBO1 111122Z 22006KT 16/14 A3021 RMK A01 T01630142  RH  088%=      5-min Rain = 0
KBO1 111123Z 22005KT 16/14 A3021 RMK A01 T01620142  RH  088%=      5-min Rain = 0
KBO1 111124Z 23005KT 16/14 A3021 RMK A01 T01620142  RH  088%=      5-min Rain = 0
KBO1 111125Z 23004KT 16/14 A3021 RMK A01 T01610141  RH  088%=      5-min Rain = 0
KBO1 111126Z 23004KT 16/14 A3021 RMK A01 T01600140  RH  088%=      5-min Rain = 0
KBO1 111127Z 22004KT 16/14 A3021 RMK A01 T01590140  RH  088%=      5-min Rain = 0
KBO1 111128Z 21004KT 16/14 A3021 RMK A01 T01580139  RH  088%=      5-min Rain = 0
KBO1 111129Z 21004KT 16/14 A3021 RMK A01 T01580139  RH  089%=      5-min Rain = 0
KBO1 111130Z 21005KT 16/14 A3021 RMK A01 T01580140  RH  089%=      5-min Rain = 0
KBO1 111131Z 21005KT 16/14 A3021 RMK A01 T01580139  RH  089%=      5-min Rain = 0
KBO1 111132Z 21005KT 16/14 A3021 RMK A01 T01580139  RH  089%=      5-min Rain = 0
KBO1 111133Z 21005KT 16/14 A3021 RMK A01 T01580139  RH  089%=      5-min Rain = 0
KBO1 111134Z 21005KT 16/14 A3021 RMK A01 T01580139  RH  089%=      5-min Rain = 0
KBO1 111135Z 21005KT 16/14 A3021 RMK A01 T01580140  RH  089%=      5-min Rain = 0
KBO1 111136Z 21005KT 16/14 A3021 RMK A01 T01590140  RH  089%=      5-min Rain = 0
KBO1 111137Z 21005KT 16/14 A3021 RMK A01 T01600141  RH  088%=      5-min Rain = 0
KBO1 111138Z 21004KT 16/14 A3021 RMK A01 T01600141  RH  088%=      5-min Rain = 0
KBO1 111139Z 21004KT 16/14 A3021 RMK A01 T01610141  RH  088%=      5-min Rain = 0
KBO1 111140Z 22004KT 16/14 A3021 RMK A01 T01610141  RH  088%=      5-min Rain = 0
KBO1 111141Z 23004KT 16/14 A3021 RMK A01 T01610140  RH  087%=      5-min Rain = 0
KBO1 111142Z 23004KT 16/14 A3021 RMK A01 T01610140  RH  088%=      5-min Rain = 0
KBO1 111143Z 23004KT 16/14 A3021 RMK A01 T01610140  RH  088%=      5-min Rain = 0
KBO1 111144Z 23004KT 16/14 A3021 RMK A01 T01610140  RH  087%=      5-min Rain = 0
KBO1 111145Z 23004KT 16/14 A3021 RMK A01 T01600139  RH  087%=      5-min Rain = 0
KBO1 111146Z 23004KT 16/14 A3021 RMK A01 T01600139  RH  087%=      5-min Rain = 0
KBO1 111147Z 23004KT 16/14 A3021 RMK A01 T01600139  RH  087%=      5-min Rain = 0
KBO1 111148Z 23004KT 16/14 A3021 RMK A01 T01600140  RH  088%=      5-min Rain = 0
KBO1 111149Z 23005KT 16/14 A3021 RMK A01 T01600140  RH  088%=      5-min Rain = 0
KBO1 111150Z 23005KT 16/14 A3021 RMK A01 T01610140  RH  087%=      5-min Rain = 0
KBO1 111151Z 23005KT 16/14 A3021 RMK A01 T01610140  RH  087%=      5-min Rain = 0
KBO1 111152Z 23005KT 16/14 A3021 RMK A01 T01620140  RH  087%=      5-min Rain = 0
KBO1 111153Z 23005KT 16/14 A3021 RMK A01 T01620140  RH  087%=      5-min Rain = 0
KBO1 111154Z 24006KT 16/14 A3021 RMK A01 T01620140  RH  087%=      5-min Rain = 0
KBO1 111155Z 24006KT 16/14 A3021 RMK A01 T01620140  RH  087%=      5-min Rain = 0
KBO1 111156Z 24006KT 16/14 A3021 RMK A01 T01620140  RH  087%=      5-min Rain = 0
KBO1 111157Z 24006KT 16/14 A3021 RMK A01 T01620141  RH  087%=      5-min Rain = 0
KBO1 111158Z 24006KT 16/14 A3021 RMK A01 T01620141  RH  087%=      5-min Rain = 0
KBO1 111159Z 24006KT 16/14 A3021 RMK A01 T01620141  RH  088%=      5-min Rain = 0
KBO1 111200Z 23006KT 16/14 A3021 RMK A01 T01630142  RH  088%=      5-min Rain = 0
KBO1 111201Z 23006KT 16/14 A3021 RMK A01 T01620142  RH  088%=      5-min Rain = 0
KBO1 111202Z 23007KT 16/14 A3022 RMK A01 T01630142  RH  088%=      5-min Rain = 0
KBO1 111203Z 23006KT 16/14 A3022 RMK A01 T01630142  RH  088%=      5-min Rain = 0
KBO1 111204Z 23006KT 16/14 A3022 RMK A01 T01630143  RH  088%=      5-min Rain = 0
KBO1 111205Z 23006KT 16/14 A3022 RMK A01 T01640143  RH  087%=      5-min Rain = 0
KBO1 111206Z 23006KT 16/14 A3022 RMK A01 T01640143  RH  087%=      5-min Rain = 0
KBO1 111207Z 24006KT 16/14 A3022 RMK A01 T01640143  RH  088%=      5-min Rain = 0
KBO1 111208Z 24006KT 16/14 A3022 RMK A01 T01640143  RH  088%=      5-min Rain = 0
KBO1 111209Z 25006KT 16/14 A3022 RMK A01 T01640143  RH  088%=      5-min Rain = 0
KBO1 111210Z 26006KT 16/14 A3022 RMK A01 T01640143  RH  088%=      5-min Rain = 0
KBO1 111211Z 25007KT 16/14 A3022 RMK A01 T01630143  RH  088%=      5-min Rain = 0
KBO1 111212Z 25007KT 16/14 A3022 RMK A01 T01620143  RH  088%=      5-min Rain = 0
KBO1 111213Z 24007KT 16/14 A3022 RMK A01 T01620143  RH  088%=      5-min Rain = 0
KBO1 111214Z 24007KT 16/14 A3022 RMK A01 T01630143  RH  088%=      5-min Rain = 0
KBO1 111215Z 24008KT 16/14 A3022 RMK A01 T01640144  RH  088%=      5-min Rain = 0
KBO1 111216Z 24008KT 17/15 A3022 RMK A01 T01650145  RH  088%=      5-min Rain = 0
KBO1 111217Z 23008KT 17/15 A3022 RMK A01 T01660145  RH  088%=      5-min Rain = 0
KBO1 111218Z 23008KT 17/15 A3022 RMK A01 T01670146  RH  087%=      5-min Rain = 0
KBO1 111219Z 23008KT 17/15 A3022 RMK A01 T01680146  RH  087%=      5-min Rain = 0
KBO1 111220Z 23008KT 17/15 A3022 RMK A01 T01690147  RH  086%=      5-min Rain = 0
KBO1 111221Z 23008KT 17/15 A3022 RMK A01 T01700147  RH  086%=      5-min Rain = 0
KBO1 111222Z 22008KT 17/15 A3022 RMK A01 T01720148  RH  086%=      5-min Rain = 0
KBO1 111223Z 22008KT 17/15 A3022 RMK A01 T01720148  RH  085%=      5-min Rain = 0
KBO1 111224Z 22008KT 17/15 A3021 RMK A01 T01730148  RH  085%=      5-min Rain = 0
KBO1 111225Z 22008KT 17/15 A3021 RMK A01 T01740149  RH  085%=      5-min Rain = 0
KBO1 111226Z 22008KT 18/15 A3022 RMK A01 T01750149  RH  084%=      5-min Rain = 0
KBO1 111227Z 22007KT 18/15 A3022 RMK A01 T01760149  RH  084%=      5-min Rain = 0
KBO1 111228Z 22008KT 18/15 A3022 RMK A01 T01770149  RH  084%=      5-min Rain = 0
KBO1 111229Z 22007KT 18/15 A3022 RMK A01 T01770149  RH  084%=      5-min Rain = 0
KBO1 111230Z 22007KT 18/15 A3022 RMK A01 T01770149  RH  083%=      5-min Rain = 0
KBO1 111231Z 22007KT 18/15 A3022 RMK A01 T01770149  RH  083%=      5-min Rain = 0
KBO1 111232Z 22007KT 18/15 A3022 RMK A01 T01770148  RH  083%=      5-min Rain = 0
KBO1 111233Z 22007KT 18/15 A3022 RMK A01 T01770148  RH  083%=      5-min Rain = 0
KBO1 111234Z 22007KT 18/15 A3022 RMK A01 T01770148  RH  083%=      5-min Rain = 0
KBO1 111235Z 23007KT 18/15 A3022 RMK A01 T01770148  RH  083%=      5-min Rain = 0
KBO1 111236Z 23006KT 18/15 A3021 RMK A01 T01770148  RH  083%=      5-min Rain = 0
KBO1 111237Z 23006KT 18/15 A3021 RMK A01 T01770148  RH  083%=      5-min Rain = 0
KBO1 111238Z 24006KT 18/15 A3021 RMK A01 T01770148  RH  083%=      5-min Rain = 0
KBO1 111239Z 24006KT 18/15 A3021 RMK A01 T01770148  RH  083%=      5-min Rain = 0
KBO1 111240Z 24005KT 18/15 A3021 RMK A01 T01780149  RH  083%=      5-min Rain = 0
KBO1 111241Z 24005KT 18/15 A3021 RMK A01 T01780149  RH  083%=      5-min Rain = 0
KBO1 111242Z 24005KT 18/15 A3022 RMK A01 T01780150  RH  083%=      5-min Rain = 0
KBO1 111243Z 24005KT 18/15 A3022 RMK A01 T01790150  RH  083%=      5-min Rain = 0
KBO1 111244Z 24005KT 18/15 A3022 RMK A01 T01800151  RH  083%=      5-min Rain = 0
KBO1 111245Z 24005KT 18/15 A3022 RMK A01 T01810152  RH  083%=      5-min Rain = 0
KBO1 111246Z 24006KT 18/15 A3022 RMK A01 T01820151  RH  083%=      5-min Rain = 0
KBO1 111247Z 24005KT 18/15 A3022 RMK A01 T01820152  RH  082%=      5-min Rain = 0
KBO1 111248Z 24005KT 18/15 A3022 RMK A01 T01830152  RH  082%=      5-min Rain = 0
KBO1 111249Z 24005KT 18/15 A3022 RMK A01 T01840152  RH  082%=      5-min Rain = 0
KBO1 111250Z 23005KT 19/15 A3022 RMK A01 T01850152  RH  081%=      5-min Rain = 0
KBO1 111251Z 23005KT 19/15 A3022 RMK A01 T01860153  RH  081%=      5-min Rain = 0
KBO1 111252Z 23005KT 19/15 A3022 RMK A01 T01870153  RH  080%=      5-min Rain = 0
KBO1 111253Z 23006KT 19/15 A3022 RMK A01 T01880153  RH  080%=      5-min Rain = 0
KBO1 111254Z 23005KT 19/15 A3022 RMK A01 T01900153  RH  079%=      5-min Rain = 0
KBO1 111255Z 24006KT 19/15 A3022 RMK A01 T01900153  RH  079%=      5-min Rain = 0
KBO1 111256Z 23006KT 19/15 A3021 RMK A01 T01920153  RH  078%=      5-min Rain = 0
KBO1 111257Z 23006KT 19/15 A3021 RMK A01 T01930153  RH  078%=      5-min Rain = 0
KBO1 111258Z 24005KT 19/15 A3021 RMK A01 T01940154  RH  078%=      5-min Rain = 0
KBO1 111259Z 23006KT 20/15 A3021 RMK A01 T01950154  RH  077%=      5-min Rain = 0
KBO1 111300Z 23006KT 20/15 A3021 RMK A01 T01960154  RH  077%=      5-min Rain = 0
KBO1 111301Z 23005KT 20/15 A3022 RMK A01 T01970154  RH  076%=      5-min Rain = 0
KBO1 111302Z 23005KT 20/16 A3022 RMK A01 T01980155  RH  076%=      5-min Rain = 0
KBO1 111303Z 23006KT 20/16 A3022 RMK A01 T01990155  RH  076%=      5-min Rain = 0
KBO1 111304Z 23006KT 20/16 A3022 RMK A01 T02000155  RH  075%=      5-min Rain = 0
KBO1 111305Z 23005KT 20/16 A3022 RMK A01 T02010155  RH  075%=      5-min Rain = 0
KBO1 111306Z 23006KT 20/15 A3022 RMK A01 T02010154  RH  074%=      5-min Rain = 0
KBO1 111307Z 22006KT 20/15 A3022 RMK A01 T02020154  RH  074%=      5-min Rain = 0
KBO1 111308Z 23005KT 20/15 A3022 RMK A01 T02030154  RH  074%=      5-min Rain = 0
KBO1 111309Z 23005KT 20/16 A3022 RMK A01 T02030155  RH  074%=      5-min Rain = 0
KBO1 111310Z 22006KT 20/16 A3022 RMK A01 T02040155  RH  073%=      5-min Rain = 0
KBO1 111311Z 22007KT 21/16 A3022 RMK A01 T02050155  RH  073%=      5-min Rain = 0
KBO1 111312Z 22006KT 21/16 A3022 RMK A01 T02050155  RH  073%=      5-min Rain = 0
KBO1 111313Z 22006KT 21/16 A3022 RMK A01 T02060156  RH  073%=      5-min Rain = 0
KBO1 111314Z 22007KT 21/16 A3022 RMK A01 T02070155  RH  072%=      5-min Rain = 0
KBO1 111315Z 22007KT 21/15 A3022 RMK A01 T02080154  RH  072%=      5-min Rain = 0
KBO1 111316Z 22007KT 21/15 A3022 RMK A01 T02080154  RH  071%=      5-min Rain = 0
KBO1 111317Z 21007KT 21/16 A3022 RMK A01 T02090155  RH  071%=      5-min Rain = 0
KBO1 111318Z 21008KT 21/16 A3021 RMK A01 T02100155  RH  071%=      5-min Rain = 0
KBO1 111319Z 22008KT 21/16 A3021 RMK A01 T02110155  RH  070%=      5-min Rain = 0
KBO1 111320Z 21008KT 21/16 A3021 RMK A01 T02120155  RH  070%=      5-min Rain = 0
KBO1 111321Z 21008KT 21/16 A3021 RMK A01 T02130155  RH  069%=      5-min Rain = 0
KBO1 111322Z 21008KT 21/16 A3021 RMK A01 T02140156  RH  069%=      5-min Rain = 0
KBO1 111323Z 21007KT 22/16 A3021 RMK A01 T02150156  RH  069%=      5-min Rain = 0
KBO1 111324Z 21009KT 22/16 A3021 RMK A01 T02160156  RH  069%=      5-min Rain = 0
KBO1 111325Z 21008KT 22/16 A3021 RMK A01 T02170155  RH  068%=      5-min Rain = 0
KBO1 111326Z 22008KT 22/16 A3021 RMK A01 T02170156  RH  068%=      5-min Rain = 0
KBO1 111327Z 21008KT 22/16 A3021 RMK A01 T02180156  RH  068%=      5-min Rain = 0
KBO1 111328Z 22010KT 22/16 A3021 RMK A01 T02190156  RH  067%=      5-min Rain = 0
KBO1 111329Z 21010KT 22/16 A3021 RMK A01 T02200156  RH  067%=      5-min Rain = 0
KBO1 111330Z 21011KT 22/16 A3021 RMK A01 T02210156  RH  066%=      5-min Rain = 0
KBO1 111331Z 22011KT 22/16 A3021 RMK A01 T02210155  RH  066%=      5-min Rain = 0
KBO1 111332Z 21009KT 22/16 A3021 RMK A01 T02210155  RH  066%=      5-min Rain = 0
KBO1 111333Z 22010KT 22/16 A3021 RMK A01 T02210156  RH  066%=      5-min Rain = 0
KBO1 111334Z 21011KT 22/16 A3021 RMK A01 T02220155  RH  066%=      5-min Rain = 0
KBO1 111335Z 21009KT 22/16 A3021 RMK A01 T02230157  RH  066%=      5-min Rain = 0
KBO1 111336Z 20011KT 23/16 A3021 RMK A01 T02250157  RH  065%=      5-min Rain = 0
KBO1 111337Z 20011KT 23/16 A3021 RMK A01 T02260157  RH  065%=      5-min Rain = 0
KBO1 111338Z 20011KT 23/16 A3021 RMK A01 T02260156  RH  065%=      5-min Rain = 0
KBO1 111339Z 20011KT 23/16 A3021 RMK A01 T02270157  RH  065%=      5-min Rain = 0
KBO1 111340Z 20011KT 23/16 A3021 RMK A01 T02270157  RH  064%=      5-min Rain = 0
KBO1 111341Z 20014KT 23/16 A3021 RMK A01 T02290156  RH  063%=      5-min Rain = 0
KBO1 111342Z 20013KT 23/16 A3021 RMK A01 T02290155  RH  063%=      5-min Rain = 0
KBO1 111343Z 20013KT 23/16 A3021 RMK A01 T02280155  RH  063%=      5-min Rain = 0
KBO1 111344Z 20013KT 23/16 A3021 RMK A01 T02280155  RH  064%=      5-min Rain = 0
KBO1 111345Z 20011KT 23/16 A3021 RMK A01 T02280155  RH  063%=      5-min Rain = 0
KBO1 111346Z 20012KT 23/16 A3021 RMK A01 T02300156  RH  063%=      5-min Rain = 0
KBO1 111347Z 21013KT 23/16 A3021 RMK A01 T02310155  RH  062%=      5-min Rain = 0
KBO1 111348Z 20014KT 23/16 A3021 RMK A01 T02310155  RH  063%=      5-min Rain = 0
KBO1 111349Z 20012KT 23/15 A3021 RMK A01 T02300154  RH  062%=      5-min Rain = 0
KBO1 111350Z 21014KT 23/16 A3021 RMK A01 T02310155  RH  062%=      5-min Rain = 0
KBO1 111351Z 21013KT 23/15 A3021 RMK A01 T02310154  RH  062%=      5-min Rain = 0
KBO1 111352Z 21013KT 23/15 A3021 RMK A01 T02310154  RH  062%=      5-min Rain = 0
KBO1 111353Z 21011KT 23/15 A3021 RMK A01 T02310154  RH  062%=      5-min Rain = 0
KBO1 111354Z 21013KT 23/16 A3021 RMK A01 T02330155  RH  061%=      5-min Rain = 0
KBO1 111355Z 21013KT 23/15 A3021 RMK A01 T02340154  RH  061%=      5-min Rain = 0
KBO1 111356Z 20012KT 23/15 A3021 RMK A01 T02340154  RH  061%=      5-min Rain = 0
KBO1 111357Z 20011KT 24/16 A3021 RMK A01 T02350155  RH  061%=      5-min Rain = 0
KBO1 111358Z 21012KT 24/16 A3021 RMK A01 T02360156  RH  061%=      5-min Rain = 0
KBO1 111359Z 21010KT 24/16 A3021 RMK A01 T02380156  RH  060%=      5-min Rain = 0
KBO1 111400Z 20012KT 24/16 A3021 RMK A01 T02400156  RH  059%=      5-min Rain = 0
KBO1 111401Z 21012KT 24/16 A3021 RMK A01 T02400155  RH  059%=      5-min Rain = 0
KBO1 111402Z 21011KT 24/16 A3021 RMK A01 T02400156  RH  059%=      5-min Rain = 0
KBO1 111403Z 21014KT 24/16 A3021 RMK A01 T02410156  RH  059%=      5-min Rain = 0
KBO1 111404Z 21014KT 24/16 A3021 RMK A01 T02400155  RH  059%=      5-min Rain = 0
KBO1 111405Z 21013KT 24/16 A3021 RMK A01 T02390156  RH  059%=      5-min Rain = 0
KBO1 111406Z 21014KT 24/16 A3021 RMK A01 T02390155  RH  059%=      5-min Rain = 0
KBO1 111407Z 21015KT 24/16 A3021 RMK A01 T02390155  RH  059%=      5-min Rain = 0
KBO1 111408Z 21012KT 24/16 A3021 RMK A01 T02390155  RH  059%=      5-min Rain = 0
KBO1 111409Z 21012KT 24/16 A3021 RMK A01 T02390156  RH  059%=      5-min Rain = 0
KBO1 111410Z 19013KT 24/16 A3021 RMK A01 T02410155  RH  059%=      5-min Rain = 0
KBO1 111411Z 20013KT 24/16 A3022 RMK A01 T02420155  RH  058%=      5-min Rain = 0
KBO1 111412Z 21013KT 24/16 A3022 RMK A01 T02420155  RH  058%=      5-min Rain = 0
KBO1 111413Z 21014KT 24/15 A3021 RMK A01 T02420154  RH  058%=      5-min Rain = 0
KBO1 111414Z 20013KT 24/16 A3021 RMK A01 T02420155  RH  058%=      5-min Rain = 0
KBO1 111415Z 21014KT 24/15 A3021 RMK A01 T02420154  RH  058%=      5-min Rain = 0
KBO1 111416Z 21013KT 24/15 A3021 RMK A01 T02420154  RH  058%=      5-min Rain = 0
KBO1 111417Z 20013KT 24/15 A3021 RMK A01 T02410154  RH  058%=      5-min Rain = 0
KBO1 111418Z 21013KT 24/15 A3021 RMK A01 T02410154  RH  058%=      5-min Rain = 0
KBO1 111419Z 21013KT 24/15 A3021 RMK A01 T02410153  RH  058%=      5-min Rain = 0
KBO1 111420Z 20013KT 24/15 A3021 RMK A01 T02420154  RH  058%=      5-min Rain = 0
KBO1 111421Z 19013KT 24/15 A3021 RMK A01 T02430154  RH  057%=      5-min Rain = 0
KBO1 111422Z 20012KT 24/15 A3021 RMK A01 T02440154  RH  057%=      5-min Rain = 0
KBO1 111423Z 19013KT 25/15 A3021 RMK A01 T02460154  RH  056%=      5-min Rain = 0
KBO1 111424Z 19012KT 25/15 A3021 RMK A01 T02470153  RH  056%=      5-min Rain = 0
KBO1 111425Z 20013KT 25/15 A3022 RMK A01 T02470154  RH  056%=      5-min Rain = 0
KBO1 111426Z 21013KT 25/15 A3021 RMK A01 T02480153  RH  056%=      5-min Rain = 0
KBO1 111427Z 20014KT 25/15 A3021 RMK A01 T02480152  RH  055%=      5-min Rain = 0
KBO1 111428Z 20014KT 25/15 A3022 RMK A01 T02480151  RH  055%=      5-min Rain = 0
KBO1 111429Z 21013KT 25/15 A3021 RMK A01 T02480152  RH  055%=      5-min Rain = 0
KBO1 111430Z 21014KT 25/15 A3021 RMK A01 T02490151  RH  055%=      5-min Rain = 0
KBO1 111431Z 20014KT 25/15 A3021 RMK A01 T02490151  RH  054%=      5-min Rain = 0
KBO1 111432Z 21013KT 25/15 A3021 RMK A01 T02500151  RH  054%=      5-min Rain = 0
KBO1 111433Z 20014KT 25/15 A3022 RMK A01 T02490151  RH  055%=      5-min Rain = 0
KBO1 111434Z 20014KT 25/15 A3022 RMK A01 T02490152  RH  055%=      5-min Rain = 0
KBO1 111435Z 20013KT 25/15 A3021 RMK A01 T02490152  RH  055%=      5-min Rain = 0
KBO1 111436Z 20015KT 25/15 A3021 RMK A01 T02500151  RH  054%=      5-min Rain = 0
KBO1 111437Z 19015KT 25/15 A3021 RMK A01 T02500150  RH  054%=      5-min Rain = 0
KBO1 111438Z 19014KT 25/15 A3022 RMK A01 T02500150  RH  054%=      5-min Rain = 0
KBO1 111439Z 19015KT 25/15 A3021 RMK A01 T02510149  RH  053%=      5-min Rain = 0
KBO1 111440Z 19015KT 25/15 A3021 RMK A01 T02510150  RH  053%=      5-min Rain = 0
KBO1 111441Z 20013KT 25/15 A3022 RMK A01 T02510151  RH  054%=      5-min Rain = 0
KBO1 111442Z 20014KT 25/15 A3022 RMK A01 T02530148  RH  052%=      5-min Rain = 0
KBO1 111443Z 21014KT 25/15 A3022 RMK A01 T02530148  RH  052%=      5-min Rain = 0
KBO1 111444Z 21012KT 25/15 A3022 RMK A01 T02510149  RH  053%=      5-min Rain = 0
KBO1 111445Z 19013KT 25/15 A3022 RMK A01 T02510150  RH  053%=      5-min Rain = 0
KBO1 111446Z 19013KT 25/15 A3022 RMK A01 T02520150  RH  053%=      5-min Rain = 0
KBO1 111447Z 19013G18KT 25/15 A3022 RMK A01 T02520149  RH  053%=      5-min Rain = 0
KBO1 111448Z 19014KT 25/15 A3022 RMK A01 T02530149  RH  053%=      5-min Rain = 0
KBO1 111449Z 19011KT 26/15 A3022 RMK A01 T02560150  RH  052%=      5-min Rain = 0
KBO1 111450Z 19014KT 26/15 A3022 RMK A01 T02590147  RH  050%=      5-min Rain = 0
KBO1 111451Z 21012KT 26/15 A3022 RMK A01 T02580146  RH  050%=      5-min Rain = 0
KBO1 111452Z 21014KT 26/15 A3021 RMK A01 T02560146  RH  051%=      5-min Rain = 0
KBO1 111453Z 20014KT 26/15 A3021 RMK A01 T02560148  RH  051%=      5-min Rain = 0
KBO1 111454Z 21015KT 26/15 A3021 RMK A01 T02560146  RH  051%=      5-min Rain = 0
KBO1 111455Z 20014KT 26/15 A3021 RMK A01 T02550146  RH  051%=      5-min Rain = 0
KBO1 111456Z 19014KT 26/15 A3021 RMK A01 T02560147  RH  051%=      5-min Rain = 0
KBO1 111457Z 21011KT 26/15 A3021 RMK A01 T02560148  RH  051%=      5-min Rain = 0
KBO1 111458Z 21014KT 26/15 A3021 RMK A01 T02560148  RH  051%=      5-min Rain = 0
KBO1 111459Z 20012KT 26/15 A3021 RMK A01 T02560146  RH  051%=      5-min Rain = 0
KBO1 111500Z 20013KT 26/15 A3021 RMK A01 T02570148  RH  051%=      5-min Rain = 0
KBO1 111501Z 20015KT 26/15 A3021 RMK A01 T02580146  RH  050%=      5-min Rain = 0
KBO1 111502Z 20015KT 26/15 A3021 RMK A01 T02580146  RH  050%=      5-min Rain = 0
KBO1 111503Z 20013KT 26/15 A3021 RMK A01 T02570146  RH  050%=      5-min Rain = 0
KBO1 111504Z 21013KT 26/15 A3021 RMK A01 T02570147  RH  051%=      5-min Rain = 0
KBO1 111505Z 20015KT 26/15 A3021 RMK A01 T02580147  RH  050%=      5-min Rain = 0
KBO1 111506Z 21013KT 26/15 A3021 RMK A01 T02590148  RH  050%=      5-min Rain = 0
KBO1 111507Z 20014KT 26/15 A3021 RMK A01 T02590149  RH  051%=      5-min Rain = 0
KBO1 111508Z 19013KT 26/15 A3021 RMK A01 T02590148  RH  050%=      5-min Rain = 0
KBO1 111509Z 19015KT 26/15 A3021 RMK A01 T02590146  RH  050%=      5-min Rain = 0
KBO1 111510Z 19013KT 26/15 A3021 RMK A01 T02580147  RH  050%=      5-min Rain = 0
KBO1 111511Z 20013KT 26/15 A3021 RMK A01 T02590148  RH  050%=      5-min Rain = 0
KBO1 111512Z 20016KT 26/15 A3021 RMK A01 T02580147  RH  050%=      5-min Rain = 0
KBO1 111513Z 20013KT 26/15 A3021 RMK A01 T02580146  RH  050%=      5-min Rain = 0
KBO1 111514Z 20012KT 26/15 A3021 RMK A01 T02580147  RH  050%=      5-min Rain = 0
KBO1 111515Z 20012KT 26/15 A3021 RMK A01 T02580147  RH  050%=      5-min Rain = 0
KBO1 111516Z 21011KT 26/15 A3021 RMK A01 T02610149  RH  050%=      5-min Rain = 0
KBO1 111517Z 20013KT 26/15 A3021 RMK A01 T02640148  RH  049%=      5-min Rain = 0
KBO1 111518Z 20012KT 26/15 A3021 RMK A01 T02620149  RH  050%=      5-min Rain = 0
KBO1 111519Z 19009KT 26/15 A3021 RMK A01 T02610150  RH  050%=      5-min Rain = 0
KBO1 111520Z 19013G18KT 26/15 A3021 RMK A01 T02630151  RH  050%=      5-min Rain = 0
KBO1 111521Z 19014KT 26/15 A3021 RMK A01 T02630150  RH  050%=      5-min Rain = 0
KBO1 111522Z 18010KT 26/15 A3021 RMK A01 T02610150  RH  051%=      5-min Rain = 0
KBO1 111523Z 19010KT 26/15 A3021 RMK A01 T02600151  RH  051%=      5-min Rain = 0
KBO1 111524Z 19012KT 26/15 A3021 RMK A01 T02630153  RH  051%=      5-min Rain = 0
KBO1 111525Z 19009KT 27/15 A3021 RMK A01 T02670152  RH  049%=      5-min Rain = 0
KBO1 111526Z 19014KT 27/15 A3021 RMK A01 T02670152  RH  049%=      5-min Rain = 0
KBO1 111527Z 20014KT 27/15 A3021 RMK A01 T02660150  RH  049%=      5-min Rain = 0
KBO1 111528Z 20012KT 27/15 A3021 RMK A01 T02650149  RH  049%=      5-min Rain = 0
KBO1 111529Z 20010KT 26/15 A3021 RMK A01 T02640149  RH  049%=      5-min Rain = 0
KBO1 111530Z 19012KT 27/15 A3021 RMK A01 T02670152  RH  049%=      5-min Rain = 0
KBO1 111531Z 20013KT 27/15 A3021 RMK A01 T02710150  RH  047%=      5-min Rain = 0
KBO1 111532Z 19012KT 27/15 A3021 RMK A01 T02690149  RH  048%=      5-min Rain = 0
KBO1 111533Z 19012KT 27/15 A3021 RMK A01 T02660147  RH  048%=      5-min Rain = 0
KBO1 111534Z 19014KT 27/15 A3021 RMK A01 T02650148  RH  049%=      5-min Rain = 0
KBO1 111535Z 19015KT 27/15 A3021 RMK A01 T02650148  RH  049%=      5-min Rain = 0
KBO1 111536Z 20012KT 26/15 A3021 RMK A01 T02640148  RH  049%=      5-min Rain = 0
KBO1 111537Z 20011KT 26/15 A3021 RMK A01 T02630149  RH  049%=      5-min Rain = 0
KBO1 111538Z 19012KT 26/15 A3021 RMK A01 T02640148  RH  049%=      5-min Rain = 0
KBO1 111539Z 19013KT 27/15 A3021 RMK A01 T02650149  RH  049%=      5-min Rain = 0
KBO1 111540Z 19013KT 27/15 A3021 RMK A01 T02670148  RH  048%=      5-min Rain = 0
KBO1 111541Z 19011KT 27/15 A3021 RMK A01 T02680147  RH  047%=      5-min Rain = 0
KBO1 111542Z 19009KT 27/15 A3021 RMK A01 T02670149  RH  048%=      5-min Rain = 0
KBO1 111543Z 18010G15KT 27/15 A3021 RMK A01 T02700150  RH  048%=      5-min Rain = 0
KBO1 111544Z 18015KT 27/15 A3021 RMK A01 T02730148  RH  046%=      5-min Rain = 0
KBO1 111545Z 19011KT 27/15 A3021 RMK A01 T02700147  RH  047%=      5-min Rain = 0
KBO1 111546Z 19011KT 27/15 A3021 RMK A01 T02680148  RH  048%=      5-min Rain = 0
KBO1 111547Z 20012KT 27/15 A3021 RMK A01 T02680148  RH  048%=      5-min Rain = 0
KBO1 111548Z 19011KT 27/15 A3021 RMK A01 T02680149  RH  048%=      5-min Rain = 0
KBO1 111549Z 18013KT 27/15 A3021 RMK A01 T02700148  RH  047%=      5-min Rain = 0
KBO1 111550Z 17013G19KT 27/15 A3021 RMK A01 T02700148  RH  047%=      5-min Rain = 0
KBO1 111551Z 20014KT 27/15 A3021 RMK A01 T02690147  RH  047%=      5-min Rain = 0
KBO1 111552Z 19011KT 27/15 A3021 RMK A01 T02670146  RH  047%=      5-min Rain = 0
KBO1 111553Z 19014KT 27/15 A3021 RMK A01 T02660147  RH  048%=      5-min Rain = 0
KBO1 111554Z 19012KT 27/15 A3021 RMK A01 T02670146  RH  047%=      5-min Rain = 0
KBO1 111555Z 19010KT 27/15 A3021 RMK A01 T02660146  RH  048%=      5-min Rain = 0
KBO1 111556Z 20011KT 27/15 A302 RMK A01 T02700145  RH  046%=      5-min Rain = 0
KBO1 111557Z 20011KT 27/14 A302 RMK A01 T02710142  RH  045%=      5-min Rain = 0
KBO1 111558Z 20010G15KT 27/14 A302 RMK A01 T02670143  RH  046%=      5-min Rain = 0
KBO1 111559Z 20012KT 27/15 A302 RMK A01 T02690147  RH  047%=      5-min Rain = 0
KBO1 111600Z 19011KT 27/15 A302 RMK A01 T02720148  RH  047%=      5-min Rain = 0
KBO1 111601Z 18011KT 27/15 A302 RMK A01 T02730147  RH  046%=      5-min Rain = 0
KBO1 111602Z 20012KT 27/15 A302 RMK A01 T02740147  RH  046%=      5-min Rain = 0
KBO1 111603Z 20012KT 28/15 A302 RMK A01 T02770146  RH  045%=      5-min Rain = 0
KBO1 111604Z 21011KT 28/15 A302 RMK A01 T02750146  RH  045%=      5-min Rain = 0
KBO1 111605Z 20010KT 27/15 A302 RMK A01 T02700145  RH  046%=      5-min Rain = 0
KBO1 111606Z 19010KT 27/15 A302 RMK A01 T02680147  RH  047%=      5-min Rain = 0
KBO1 111607Z 19014KT 27/15 A302 RMK A01 T02720145  RH  046%=      5-min Rain = 0
KBO1 111608Z 18012KT 27/14 A302 RMK A01 T02740142  RH  044%=      5-min Rain = 0
KBO1 111609Z 19009KT 27/14 A302 RMK A01 T02720142  RH  045%=      5-min Rain = 0
KBO1 111610Z 18008KT 27/15 A3021 RMK A01 T02730145  RH  045%=      5-min Rain = 0
KBO1 111611Z 18010KT 27/15 A302 RMK A01 T02730147  RH  046%=      5-min Rain = 0
KBO1 111612Z 18009G16KT 27/15 A302 RMK A01 T02730147  RH  046%=      5-min Rain = 0
KBO1 111613Z 18013KT 27/15 A302 RMK A01 T02730146  RH  046%=      5-min Rain = 0
KBO1 111614Z 18010KT 27/15 A302 RMK A01 T02740145  RH  045%=      5-min Rain = 0
KBO1 111615Z 17012KT 28/15 A302 RMK A01 T02770147  RH  045%=      5-min Rain = 0
KBO1 111616Z 17012KT 28/15 A302 RMK A01 T02780146  RH  045%=      5-min Rain = 0
KBO1 111617Z 17010KT 28/15 A302 RMK A01 T02780146  RH  044%=      5-min Rain = 0
KBO1 111618Z 19008G14KT 28/15 A302 RMK A01 T02780147  RH  045%=      5-min Rain = 0
KBO1 111619Z 18014KT 28/15 A302 RMK A01 T02800146  RH  044%=      5-min Rain = 0
KBO1 111620Z 19014KT 28/15 A302 RMK A01 T02800145  RH  044%=      5-min Rain = 0
KBO1 111621Z 18013KT 28/14 A302 RMK A01 T02790144  RH  043%=      5-min Rain = 0
KBO1 111622Z 17012KT 28/14 A302 RMK A01 T02790144  RH  044%=      5-min Rain = 0
KBO1 111623Z 18009KT 28/15 A302 RMK A01 T02780145  RH  044%=      5-min Rain = 0
KBO1 111624Z 17012G18KT 28/14 A302 RMK A01 T02760144  RH  044%=      5-min Rain = 0
KBO1 111625Z 18014KT 28/14 A302 RMK A01 T02750143  RH  044%=      5-min Rain = 0
KBO1 111626Z 17014KT 28/14 A302 RMK A01 T02780143  RH  044%=      5-min Rain = 0
KBO1 111627Z 18011KT 28/14 A302 RMK A01 T02780143  RH  043%=      5-min Rain = 0
KBO1 111628Z 18013KT 28/14 A302 RMK A01 T02760144  RH  044%=      5-min Rain = 0
KBO1 111629Z 17012KT 28/14 A302 RMK A01 T02760141  RH  043%=      5-min Rain = 0
KBO1 111630Z 17012KT 28/14 A302 RMK A01 T02780142  RH  043%=      5-min Rain = 0
KBO1 111631Z 19013KT 28/14 A302 RMK A01 T02790143  RH  043%=      5-min Rain = 0
KBO1 111632Z 18011KT 28/14 A302 RMK A01 T02790144  RH  044%=      5-min Rain = 0
KBO1 111633Z 18011KT 28/14 A302 RMK A01 T02790143  RH  044%=      5-min Rain = 0
KBO1 111634Z 18011G16KT 28/14 A302 RMK A01 T02790143  RH  043%=      5-min Rain = 0
KBO1 111635Z 18014KT 28/15 A302 RMK A01 T02820145  RH  043%=      5-min Rain = 0
KBO1 111636Z 19011KT 28/14 A302 RMK A01 T02830143  RH  042%=      5-min Rain = 0
KBO1 111637Z 18008KT 28/14 A302 RMK A01 T02810143  RH  043%=      5-min Rain = 0
KBO1 111638Z 18010KT 28/15 A302 RMK A01 T02800145  RH  044%=      5-min Rain = 0
KBO1 111639Z 20008KT 28/14 A302 RMK A01 T02800144  RH  043%=      5-min Rain = 0
KBO1 111640Z 20011KT 28/14 A302 RMK A01 T02810144  RH  043%=      5-min Rain = 0
KBO1 111641Z 19016KT 28/14 A302 RMK A01 T02840143  RH  042%=      5-min Rain = 0
KBO1 111642Z 20016KT 29/14 A302 RMK A01 T02850141  RH  041%=      5-min Rain = 0
KBO1 111643Z 19012KT 28/14 A302 RMK A01 T02830140  RH  042%=      5-min Rain = 0
KBO1 111644Z 19009KT 28/14 A302 RMK A01 T02810140  RH  042%=      5-min Rain = 0
KBO1 111645Z 18008G14KT 28/14 A302 RMK A01 T02800142  RH  043%=      5-min Rain = 0
KBO1 111646Z 17011KT 28/14 A302 RMK A01 T02810144  RH  043%=      5-min Rain = 0
KBO1 111647Z 17007KT 28/15 A302 RMK A01 T02830145  RH  043%=      5-min Rain = 0
KBO1 111648Z 19007KT 29/15 A302 RMK A01 T02850146  RH  043%=      5-min Rain = 0
KBO1 111649Z 20012KT 29/15 A302 RMK A01 T02880146  RH  042%=      5-min Rain = 0
KBO1 111650Z 19015KT 29/14 A302 RMK A01 T02900142  RH  040%=      5-min Rain = 0
KBO1 111651Z 19013KT 29/14 A302 RMK A01 T02880139  RH  040%=      5-min Rain = 0
KBO1 111652Z 19014KT 29/14 A302 RMK A01 T02850140  RH  041%=      5-min Rain = 0
KBO1 111653Z 19012KT 28/14 A302 RMK A01 T02820140  RH  042%=      5-min Rain = 0
KBO1 111654Z 20008KT 28/14 A302 RMK A01 T02800140  RH  042%=      5-min Rain = 0
KBO1 111655Z 19011KT 28/14 A302 RMK A01 T02810142  RH  042%=      5-min Rain = 0
KBO1 111656Z 18010KT 29/14 A302 RMK A01 T02850142  RH  041%=      5-min Rain = 0
KBO1 111657Z 20013KT 29/14 A302 RMK A01 T02860143  RH  042%=      5-min Rain = 0
KBO1 111658Z 21014KT 29/14 A302 RMK A01 T02860143  RH  042%=      5-min Rain = 0
KBO1 111659Z 18014KT 29/14 A302 RMK A01 T02860141  RH  041%=      5-min Rain = 0
KBO1 111700Z 18013KT 29/14 A302 RMK A01 T02860138  RH  040%=      5-min Rain = 0
KBO1 111701Z 18012KT 29/14 A302 RMK A01 T02860136  RH  040%=      5-min Rain = 0
KBO1 111702Z 15011KT 29/14 A302 RMK A01 T02870135  RH  039%=      5-min Rain = 0
KBO1 111703Z 16008KT 29/14 A302 RMK A01 T02870137  RH  040%=      5-min Rain = 0
KBO1 111704Z 15010KT 29/14 A302 RMK A01 T02850141  RH  041%=      5-min Rain = 0
KBO1 111705Z 15011KT 29/14 A302 RMK A01 T02860141  RH  041%=      5-min Rain = 0
KBO1 111706Z 19013KT 29/14 A302 RMK A01 T02860142  RH  041%=      5-min Rain = 0
KBO1 111707Z 20012G17KT 29/14 A302 RMK A01 T02890140  RH  040%=      5-min Rain = 0
KBO1 111708Z 19012KT 29/14 A302 RMK A01 T02910139  RH  039%=      5-min Rain = 0
KBO1 111709Z 19012KT 29/14 A302 RMK A01 T02900139  RH  040%=      5-min Rain = 0
KBO1 111710Z 20010KT 29/14 A302 RMK A01 T02890140  RH  040%=      5-min Rain = 0
KBO1 111711Z 18009KT 29/14 A302 RMK A01 T02850140  RH  041%=      5-min Rain = 0
KBO1 111712Z 19007KT 28/14 A302 RMK A01 T02830140  RH  042%=      5-min Rain = 0
KBO1 111713Z 18012KT 29/14 A302 RMK A01 T02860143  RH  042%=      5-min Rain = 0
KBO1 111714Z 18014KT 29/14 A302 RMK A01 T02930141  RH  039%=      5-min Rain = 0
KBO1 111715Z 18015KT 29/14 A302 RMK A01 T02940139  RH  039%=      5-min Rain = 0
KBO1 111716Z 18013KT 29/14 A302 RMK A01 T02920137  RH  039%=      5-min Rain = 0
KBO1 111717Z 18011KT 29/14 A302 RMK A01 T02930136  RH  038%=      5-min Rain = 0
KBO1 111718Z 17009KT 29/13 A302 RMK A01 T02910133  RH  038%=      5-min Rain = 0
KBO1 111719Z 18010KT 29/14 A302 RMK A01 T02880135  RH  039%=      5-min Rain = 0
KBO1 111720Z 18014KT 29/14 A302 RMK A01 T02890137  RH  039%=      5-min Rain = 0
KBO1 111721Z 17014KT 29/14 A302 RMK A01 T02890137  RH  039%=      5-min Rain = 0
KBO1 111722Z 15011KT 29/14 A302 RMK A01 T02900135  RH  039%=      5-min Rain = 0
KBO1 111723Z 17009KT 29/14 A302 RMK A01 T02910135  RH  039%=      5-min Rain = 0
KBO1 111724Z 17010KT 29/14 A302 RMK A01 T02900135  RH  039%=      5-min Rain = 0
KBO1 111725Z 20009KT 29/14 A302 RMK A01 T02910136  RH  039%=      5-min Rain = 0
KBO1 111726Z 20012KT 29/14 A302 RMK A01 T02930138  RH  039%=      5-min Rain = 0
KBO1 111727Z 18014KT 29/14 A302 RMK A01 T02940139  RH  039%=      5-min Rain = 0
KBO1 111728Z 17011KT 29/14 A302 RMK A01 T02920140  RH  040%=      5-min Rain = 0
KBO1 111729Z 16010KT 29/14 A302 RMK A01 T02910140  RH  040%=      5-min Rain = 0
KBO1 111730Z 17010KT 29/14 A302 RMK A01 T02900140  RH  040%=      5-min Rain = 0
KBO1 111731Z 19009KT 29/14 A302 RMK A01 T02920138  RH  039%=      5-min Rain = 0
KBO1 111732Z 18012KT 30/14 A302 RMK A01 T02960141  RH  039%=      5-min Rain = 0
KBO1 111733Z 19015KT 30/14 A302 RMK A01 T02990141  RH  038%=      5-min Rain = 0
KBO1 111734Z 19016KT 30/14 A302 RMK A01 T02970141  RH  039%=      5-min Rain = 0
KBO1 111735Z 19009KT 29/14 A302 RMK A01 T02910138  RH  039%=      5-min Rain = 0
KBO1 111736Z 19011G18KT 29/14 A302 RMK A01 T02860139  RH  040%=      5-min Rain = 0
KBO1 111737Z 20014KT 29/14 A3019 RMK A01 T02850138  RH  040%=      5-min Rain = 0
KBO1 111738Z 18013KT 29/14 A3019 RMK A01 T02850137  RH  040%=      5-min Rain = 0
KBO1 111739Z 17013KT 29/14 A3019 RMK A01 T02850136  RH  040%=      5-min Rain = 0
KBO1 111740Z 19011KT 29/14 A3019 RMK A01 T02860135  RH  040%=      5-min Rain = 0
KBO1 111741Z 19015KT 29/14 A3019 RMK A01 T02860136  RH  040%=      5-min Rain = 0
KBO1 111742Z 18016KT 29/14 A3019 RMK A01 T02920138  RH  039%=      5-min Rain = 0
KBO1 111743Z 19014KT 30/14 A3019 RMK A01 T02960137  RH  038%=      5-min Rain = 0
KBO1 111744Z 20013KT 30/14 A3019 RMK A01 T02960138  RH  038%=      5-min Rain = 0
KBO1 111745Z 19014KT 30/14 A3019 RMK A01 T02950138  RH  038%=      5-min Rain = 0
KBO1 111746Z 17015KT 29/14 A3019 RMK A01 T02930137  RH  038%=      5-min Rain = 0
KBO1 111747Z 18014G19KT 29/14 A3019 RMK A01 T02930138  RH  039%=      5-min Rain = 0
KBO1 111748Z 17012KT 30/14 A3019 RMK A01 T02980135  RH  037%=      5-min Rain = 0
KBO1 111749Z 17008KT 30/14 A3019 RMK A01 T02990136  RH  037%=      5-min Rain = 0
KBO1 111750Z 17008G15KT 30/14 A3019 RMK A01 T03010138  RH  037%=      5-min Rain = 0
KBO1 111751Z 16015KT 30/14 A3019 RMK A01 T03020135  RH  036%=      5-min Rain = 0
KBO1 111752Z 17012KT 30/13 A3019 RMK A01 T03020132  RH  035%=      5-min Rain = 0
KBO1 111753Z 17017KT 30/13 A3019 RMK A01 T02990134  RH  036%=      5-min Rain = 0
KBO1 111754Z 17014KT 30/14 A3019 RMK A01 T02980136  RH  037%=      5-min Rain = 0
KBO1 111755Z 16012KT 30/14 A3019 RMK A01 T02980137  RH  037%=      5-min Rain = 0
KBO1 111756Z 17012KT 30/14 A3019 RMK A01 T03010137  RH  037%=      5-min Rain = 0
KBO1 111757Z 15014KT 30/14 A3019 RMK A01 T03040135  RH  036%=      5-min Rain = 0
KBO1 111758Z 15013KT 30/13 A3019 RMK A01 T03040132  RH  035%=      5-min Rain = 0
KBO1 111759Z 18011KT 31/13 A3019 RMK A01 T03050132  RH  035%=      5-min Rain = 0
KBO1 111800Z 18012KT 30/14 A3019 RMK A01 T03040135  RH  036%=      5-min Rain = 0
KBO1 111801Z 14014KT 30/14 A3019 RMK A01 T03040137  RH  036%=      5-min Rain = 0
KBO1 111802Z 15014KT 31/14 A3019 RMK A01 T03050138  RH  036%=      5-min Rain = 0
KBO1 111803Z 15013KT 31/14 A3018 RMK A01 T03050139  RH  036%=      5-min Rain = 0
KBO1 111804Z 16012G17KT 31/14 A3018 RMK A01 T03060138  RH  036%=      5-min Rain = 0
KBO1 111805Z 17013KT 31/14 A3019 RMK A01 T03070138  RH  036%=      5-min Rain = 0
KBO1 111806Z 18014KT 31/14 A3018 RMK A01 T03050135  RH  035%=      5-min Rain = 0
KBO1 111807Z 19015KT 30/13 A3018 RMK A01 T03030134  RH  036%=      5-min Rain = 0
KBO1 111808Z 18015KT 30/13 A3018 RMK A01 T03000132  RH  036%=      5-min Rain = 0
KBO1 111809Z 17013KT 30/13 A3018 RMK A01 T02970133  RH  036%=      5-min Rain = 0
KBO1 111810Z 17016KT 30/14 A3018 RMK A01 T02980135  RH  037%=      5-min Rain = 0
KBO1 111811Z 19015KT 30/13 A3018 RMK A01 T03000133  RH  036%=      5-min Rain = 0
KBO1 111812Z 19012KT 30/13 A3018 RMK A01 T03000133  RH  036%=      5-min Rain = 0
KBO1 111813Z 18015KT 30/13 A3018 RMK A01 T03030133  RH  035%=      5-min Rain = 0
KBO1 111814Z 17013KT 30/13 A3018 RMK A01 T03000134  RH  036%=      5-min Rain = 0
KBO1 111815Z 18012KT 30/14 A3018 RMK A01 T02960135  RH  037%=      5-min Rain = 0
KBO1 111816Z 18010KT 30/14 A3018 RMK A01 T02960137  RH  038%=      5-min Rain = 0
KBO1 111817Z 17011G16KT 30/14 A3018 RMK A01 T03000139  RH  037%=      5-min Rain = 0
KBO1 111818Z 19014KT 30/14 A3018 RMK A01 T03030138  RH  036%=      5-min Rain = 0
KBO1 111819Z 17018G23KT 30/14 A3018 RMK A01 T03030139  RH  037%=      5-min Rain = 0
KBO1 111820Z 18016KT 30/14 A3018 RMK A01 T03040138  RH  036%=      5-min Rain = 0
KBO1 111821Z 18013KT 30/14 A3018 RMK A01 T03020137  RH  036%=      5-min Rain = 0
KBO1 111822Z 18013KT 30/14 A3018 RMK A01 T02990137  RH  037%=      5-min Rain = 0
KBO1 111823Z 18014KT 30/14 A3018 RMK A01 T02980137  RH  037%=      5-min Rain = 0
KBO1 111824Z 18015KT 30/14 A3018 RMK A01 T02990138  RH  037%=      5-min Rain = 0
KBO1 111825Z 17012KT 30/14 A3018 RMK A01 T03000137  RH  037%=      5-min Rain = 0
KBO1 111826Z 17009KT 30/14 A3018 RMK A01 T03000137  RH  037%=      5-min Rain = 0
KBO1 111827Z 17014G21KT 30/14 A3018 RMK A01 T03000138  RH  037%=      5-min Rain = 0
KBO1 111828Z 17017KT 30/14 A3018 RMK A01 T03040138  RH  036%=      5-min Rain = 0
KBO1 111829Z 17014KT 31/14 A3018 RMK A01 T03070136  RH  035%=      5-min Rain = 0
KBO1 111830Z 16016G22KT 31/14 A3018 RMK A01 T03080136  RH  035%=      5-min Rain = 0
KBO1 111831Z 16014G23KT 31/14 A3018 RMK A01 T03080135  RH  035%=      5-min Rain = 0
KBO1 111832Z 15011KT 31/13 A3018 RMK A01 T03050134  RH  035%=      5-min Rain = 0
KBO1 111833Z 16010KT 30/13 A3017 RMK A01 T03020133  RH  035%=      5-min Rain = 0
KBO1 111834Z 15013KT 30/14 A3017 RMK A01 T03030136  RH  036%=      5-min Rain = 0
KBO1 111835Z 16015KT 31/14 A3017 RMK A01 T03080136  RH  035%=      5-min Rain = 0
KBO1 111836Z 18015KT 31/14 A3017 RMK A01 T03120135  RH  034%=      5-min Rain = 0
KBO1 111837Z 17016G21KT 31/13 A3017 RMK A01 T03110134  RH  034%=      5-min Rain = 0
KBO1 111838Z 16016KT 31/13 A3017 RMK A01 T03090133  RH  034%=      5-min Rain = 0
KBO1 111839Z 16015KT 31/13 A3017 RMK A01 T03080134  RH  035%=      5-min Rain = 0
KBO1 111840Z 16014G19KT 31/13 A3017 RMK A01 T03090132  RH  034%=      5-min Rain = 0
KBO1 111841Z 16018G24KT 31/13 A3017 RMK A01 T03100133  RH  034%=      5-min Rain = 0
KBO1 111842Z 17019KT 31/13 A3017 RMK A01 T03110131  RH  033%=      5-min Rain = 0
KBO1 111843Z 18017KT 31/13 A3017 RMK A01 T03070131  RH  034%=      5-min Rain = 0
KBO1 111844Z 17015KT 30/13 A3017 RMK A01 T03040134  RH  035%=      5-min Rain = 0
KBO1 111845Z 17019KT 31/14 A3017 RMK A01 T03050135  RH  035%=      5-min Rain = 0
KBO1 111846Z 18017KT 31/14 A3017 RMK A01 T03060135  RH  035%=      5-min Rain = 0
KBO1 111847Z 17017KT 31/13 A3017 RMK A01 T03050134  RH  035%=      5-min Rain = 0
KBO1 111848Z 18016KT 30/13 A3017 RMK A01 T03020134  RH  036%=      5-min Rain = 0
KBO1 111849Z 18012KT 30/13 A3017 RMK A01 T03000134  RH  036%=      5-min Rain = 0
KBO1 111850Z 17008KT 30/13 A3017 RMK A01 T03000134  RH  036%=      5-min Rain = 0
KBO1 111851Z 17010KT 30/14 A3017 RMK A01 T03040137  RH  036%=      5-min Rain = 0
KBO1 111852Z 15014KT 31/14 A3017 RMK A01 T03090135  RH  034%=      5-min Rain = 0
KBO1 111853Z 15014KT 31/13 A3017 RMK A01 T03110133  RH  034%=      5-min Rain = 0
KBO1 111854Z 15013KT 31/13 A3017 RMK A01 T03090134  RH  034%=      5-min Rain = 0
KBO1 111855Z 16014KT 31/13 A3017 RMK A01 T03070130  RH  034%=      5-min Rain = 0
KBO1 111856Z 17012KT 30/13 A3017 RMK A01 T03010127  RH  034%=      5-min Rain = 0
KBO1 111857Z 20005G10KT 30/13 A3017 RMK A01 T02960127  RH  035%=      5-min Rain = 0
KBO1 111858Z 17014KT 29/13 A3017 RMK A01 T02930131  RH  037%=      5-min Rain = 0
KBO1 111859Z 17015KT 30/13 A3016 RMK A01 T02980133  RH  036%=      5-min Rain = 0
KBO1 111900Z 16014G20KT 30/13 A3016 RMK A01 T03010132  RH  035%=      5-min Rain = 0
KBO1 111901Z 17011KT 30/13 A3016 RMK A01 T03010130  RH  035%=      5-min Rain = 0
KBO1 111902Z 16014KT 30/13 A3016 RMK A01 T03020130  RH  035%=      5-min Rain = 0
KBO1 111903Z 14018KT 30/13 A3016 RMK A01 T03040131  RH  035%=      5-min Rain = 0
KBO1 111904Z 14018KT 31/13 A3016 RMK A01 T03050129  RH  034%=      5-min Rain = 0
KBO1 111905Z 14018KT 31/13 A3016 RMK A01 T03050131  RH  035%=      5-min Rain = 0
KBO1 111906Z 16016KT 31/13 A3016 RMK A01 T03050132  RH  035%=      5-min Rain = 0
KBO1 111907Z 16015KT 30/13 A3016 RMK A01 T03040132  RH  035%=      5-min Rain = 0
KBO1 111908Z 15016KT 31/13 A3016 RMK A01 T03060134  RH  035%=      5-min Rain = 0
KBO1 111909Z 15014KT 31/13 A3016 RMK A01 T03090134  RH  034%=      5-min Rain = 0
KBO1 111910Z 15013KT 31/13 A3016 RMK A01 T03080134  RH  035%=      5-min Rain = 0
KBO1 111911Z 15012KT 30/13 A3016 RMK A01 T03040132  RH  035%=      5-min Rain = 0
KBO1 111912Z 16010G15KT 30/13 A3016 RMK A01 T03000133  RH  036%=      5-min Rain = 0
KBO1 111913Z 17014KT 30/13 A3016 RMK A01 T02990132  RH  036%=      5-min Rain = 0
KBO1 111914Z 17017KT 30/13 A3016 RMK A01 T03020134  RH  036%=      5-min Rain = 0
KBO1 111915Z 17016KT 31/13 A3016 RMK A01 T03050133  RH  035%=      5-min Rain = 0
KBO1 111916Z 17013KT 30/13 A3016 RMK A01 T03040134  RH  035%=      5-min Rain = 0
KBO1 111917Z 17013KT 30/14 A3016 RMK A01 T03040135  RH  036%=      5-min Rain = 0
KBO1 111918Z 17013G19KT 31/13 A3015 RMK A01 T03060133  RH  035%=      5-min Rain = 0
KBO1 111919Z 16015KT 31/13 A3016 RMK A01 T03060133  RH  035%=      5-min Rain = 0
KBO1 111920Z 17018G23KT 31/13 A3015 RMK A01 T03050133  RH  035%=      5-min Rain = 0
KBO1 111921Z 18020KT 30/13 A3015 RMK A01 T03040130  RH  034%=      5-min Rain = 0
KBO1 111922Z 17016G21KT 30/13 A3015 RMK A01 T03000130  RH  035%=      5-min Rain = 0
KBO1 111923Z 16012KT 30/13 A3015 RMK A01 T02980130  RH  036%=      5-min Rain = 0
KBO1 111924Z 16013KT 30/13 A3015 RMK A01 T03000132  RH  036%=      5-min Rain = 0
KBO1 111925Z 17013KT 30/13 A3015 RMK A01 T03030131  RH  035%=      5-min Rain = 0
KBO1 111926Z 17011G17KT 31/13 A3015 RMK A01 T03050132  RH  035%=      5-min Rain = 0
KBO1 111927Z 16016KT 31/13 A3015 RMK A01 T03080133  RH  034%=      5-min Rain = 0
KBO1 111928Z 16015KT 31/13 A3015 RMK A01 T03090133  RH  034%=      5-min Rain = 0
KBO1 111929Z 18016KT 31/13 A3015 RMK A01 T03090133  RH  034%=      5-min Rain = 0
KBO1 111930Z 17018KT 31/13 A3015 RMK A01 T03130133  RH  033%=      5-min Rain = 0
KBO1 111931Z 16018KT 31/13 A3015 RMK A01 T03120130  RH  033%=      5-min Rain = 0
KBO1 111932Z 17017KT 31/13 A3015 RMK A01 T03110130  RH  033%=      5-min Rain = 0
KBO1 111933Z 18014KT 31/13 A3015 RMK A01 T03120131  RH  033%=      5-min Rain = 0
KBO1 111934Z 17013KT 31/13 A3015 RMK A01 T03130130  RH  033%=      5-min Rain = 0
KBO1 111935Z 17010KT 31/13 A3015 RMK A01 T03110130  RH  033%=      5-min Rain = 0
KBO1 111936Z 15011KT 31/13 A3015 RMK A01 T03100132  RH  034%=      5-min Rain = 0
KBO1 111937Z 16016G24KT 31/13 A3014 RMK A01 T03140132  RH  033%=      5-min Rain = 0
KBO1 111938Z 16020G25KT 32/13 A3015 RMK A01 T03150131  RH  033%=      5-min Rain = 0
KBO1 111939Z 17014KT 31/13 A3015 RMK A01 T03100129  RH  033%=      5-min Rain = 0
KBO1 111940Z 17014G20KT 31/13 A3015 RMK A01 T03070130  RH  034%=      5-min Rain = 0
KBO1 111941Z 16015KT 31/13 A3014 RMK A01 T03080130  RH  034%=      5-min Rain = 0
KBO1 111942Z 16020KT 31/13 A3014 RMK A01 T03120130  RH  033%=      5-min Rain = 0
KBO1 111943Z 17019KT 32/13 A3014 RMK A01 T03150128  RH  032%=      5-min Rain = 0
KBO1 111944Z 17017G22KT 31/13 A3014 RMK A01 T03130127  RH  032%=      5-min Rain = 0
KBO1 111945Z 17018G23KT 31/13 A3014 RMK A01 T03120128  RH  033%=      5-min Rain = 0
KBO1 111946Z 17018KT 31/13 A3014 RMK A01 T03120127  RH  032%=      5-min Rain = 0
KBO1 111947Z 17014KT 31/13 A3014 RMK A01 T03130126  RH  032%=      5-min Rain = 0
KBO1 111948Z 16010KT 31/13 A3014 RMK A01 T03110126  RH  032%=      5-min Rain = 0
KBO1 111949Z 16013KT 31/13 A3014 RMK A01 T03120129  RH  033%=      5-min Rain = 0
KBO1 111950Z 16015KT 32/13 A3014 RMK A01 T03170128  RH  031%=      5-min Rain = 0
KBO1 111951Z 15018G23KT 31/13 A3014 RMK A01 T03110127  RH  032%=      5-min Rain = 0
KBO1 111952Z 14018G23KT 31/13 A3014 RMK A01 T03060127  RH  033%=      5-min Rain = 0
KBO1 111953Z 15015KT 30/13 A3014 RMK A01 T03040128  RH  034%=      5-min Rain = 0
KBO1 111954Z 15015KT 31/13 A3014 RMK A01 T03080130  RH  034%=      5-min Rain = 0
KBO1 111955Z 16020G25KT 31/13 A3013 RMK A01 T03120128  RH  032%=      5-min Rain = 0
KBO1 111956Z 15021KT 31/13 A3013 RMK A01 T03090126  RH  032%=      5-min Rain = 0
KBO1 111957Z 16017G23KT 31/13 A3013 RMK A01 T03100127  RH  033%=      5-min Rain = 0
KBO1 111958Z 17017KT 32/13 A3013 RMK A01 T03160129  RH  032%=      5-min Rain = 0
KBO1 111959Z 16017KT 32/13 A3014 RMK A01 T03180127  RH  031%=      5-min Rain = 0
KBO1 112000Z 17016KT 32/13 A3014 RMK A01 T03170127  RH  031%=      5-min Rain = 0
KBO1 112001Z 18016G21KT 32/13 A3013 RMK A01 T03160125  RH  031%=      5-min Rain = 0
KBO1 112002Z 19017KT 32/12 A3013 RMK A01 T03150124  RH  031%=      5-min Rain = 0
KBO1 112003Z 18016KT 31/12 A3013 RMK A01 T03130124  RH  032%=      5-min Rain = 0
KBO1 112004Z 18013KT 31/12 A3013 RMK A01 T03140121  RH  031%=      5-min Rain = 0
KBO1 112005Z 17016KT 31/12 A3013 RMK A01 T03110122  RH  032%=      5-min Rain = 0
KBO1 112006Z 17016KT 31/13 A3013 RMK A01 T03110125  RH  032%=      5-min Rain = 0
KBO1 112007Z 16015G21KT 31/13 A3013 RMK A01 T03120125  RH  032%=      5-min Rain = 0
KBO1 112008Z 18014KT 31/13 A3013 RMK A01 T03140128  RH  032%=      5-min Rain = 0
KBO1 112009Z 17013KT 32/13 A3013 RMK A01 T03210127  RH  031%=      5-min Rain = 0
KBO1 112010Z 17018G23KT 32/13 A3013 RMK A01 T03200127  RH  031%=      5-min Rain = 0
KBO1 112011Z 16015G20KT 32/13 A3013 RMK A01 T03180125  RH  031%=      5-min Rain = 0
KBO1 112012Z 18016KT 32/13 A3013 RMK A01 T03160126  RH  031%=      5-min Rain = 0
KBO1 112013Z 18019KT 32/13 A3013 RMK A01 T03170125  RH  031%=      5-min Rain = 0
KBO1 112014Z 19015KT 31/12 A3013 RMK A01 T03140124  RH  031%=      5-min Rain = 0
KBO1 112015Z 19015KT 31/13 A3013 RMK A01 T03100126  RH  033%=      5-min Rain = 0
KBO1 112016Z 17017KT 31/13 A3013 RMK A01 T03110129  RH  033%=      5-min Rain = 0
KBO1 112017Z 16018KT 32/13 A3013 RMK A01 T03160127  RH  031%=      5-min Rain = 0
KBO1 112018Z 17019G24KT 32/13 A3013 RMK A01 T03170126  RH  031%=      5-min Rain = 0
KBO1 112019Z 14019G24KT 32/13 A3013 RMK A01 T03170128  RH  032%=      5-min Rain = 0
KBO1 112020Z 15013KT 32/13 A3013 RMK A01 T03210129  RH  031%=      5-min Rain = 0
KBO1 112021Z 15017G22KT 32/13 A3013 RMK A01 T03230125  RH  030%=      5-min Rain = 0
KBO1 112022Z 15020G25KT 32/13 A3012 RMK A01 T03200126  RH  031%=      5-min Rain = 0
KBO1 112023Z 15023KT 32/13 A3012 RMK A01 T03200125  RH  030%=      5-min Rain = 0
KBO1 112024Z 16019G24KT 32/12 A3012 RMK A01 T03170123  RH  031%=      5-min Rain = 0
KBO1 112025Z 17019G25KT 32/12 A3012 RMK A01 T03150123  RH  031%=      5-min Rain = 0
KBO1 112026Z 17019KT 31/12 A3012 RMK A01 T03140122  RH  031%=      5-min Rain = 0
KBO1 112027Z 17017KT 31/12 A3012 RMK A01 T03140122  RH  031%=      5-min Rain = 0
KBO1 112028Z 17014G20KT 31/12 A3012 RMK A01 T03130124  RH  032%=      5-min Rain = 0
KBO1 112029Z 16019G24KT 32/13 A3012 RMK A01 T03190126  RH  031%=      5-min Rain = 0
KBO1 112030Z 16022KT 32/12 A3012 RMK A01 T03210123  RH  030%=      5-min Rain = 0
KBO1 112031Z 16020KT 32/12 A3012 RMK A01 T03170122  RH  030%=      5-min Rain = 0
KBO1 112032Z 14015KT 32/12 A3012 RMK A01 T03150121  RH  031%=      5-min Rain = 0
KBO1 112033Z 15013KT 31/12 A3012 RMK A01 T03120122  RH  031%=      5-min Rain = 0
KBO1 112034Z 16017G23KT 31/12 A3012 RMK A01 T03100123  RH  032%=      5-min Rain = 0
KBO1 112035Z 20017KT 31/12 A3012 RMK A01 T03090123  RH  032%=      5-min Rain = 0
KBO1 112036Z 18019KT 31/13 A3012 RMK A01 T03130125  RH  032%=      5-min Rain = 0
KBO1 112037Z 17016KT 32/12 A3012 RMK A01 T03190124  RH  030%=      5-min Rain = 0
KBO1 112038Z 16016KT 32/12 A3012 RMK A01 T03220124  RH  030%=      5-min Rain = 0
KBO1 112039Z 17017KT 33/13 A3012 RMK A01 T03250127  RH  030%=      5-min Rain = 0
KBO1 112040Z 16017KT 33/13 A3012 RMK A01 T03270125  RH  029%=      5-min Rain = 0
KBO1 112041Z 15019KT 32/13 A3011 RMK A01 T03220125  RH  030%=      5-min Rain = 0
KBO1 112042Z 16018KT 32/13 A3011 RMK A01 T03210125  RH  030%=      5-min Rain = 0
KBO1 112043Z 16016G21KT 32/12 A3012 RMK A01 T03210122  RH  030%=      5-min Rain = 0
KBO1 112044Z 17014KT 32/12 A3011 RMK A01 T03170123  RH  031%=      5-min Rain = 0
KBO1 112045Z 17012KT 31/12 A3011 RMK A01 T03140122  RH  031%=      5-min Rain = 0
KBO1 112046Z 15018KT 32/13 A3011 RMK A01 T03150125  RH  031%=      5-min Rain = 0
KBO1 112047Z 16019KT 32/12 A3012 RMK A01 T03170124  RH  031%=      5-min Rain = 0
KBO1 112048Z 16017G22KT 31/12 A3012 RMK A01 T03120121  RH  031%=      5-min Rain = 0
KBO1 112049Z 16016KT 31/12 A3012 RMK A01 T03080120  RH  032%=      5-min Rain = 0
KBO1 112050Z 15018G24KT 31/12 A3011 RMK A01 T03100124  RH  032%=      5-min Rain = 0
KBO1 112051Z 14018KT 31/12 A3011 RMK A01 T03140122  RH  031%=      5-min Rain = 0
KBO1 112052Z 16016KT 31/12 A3011 RMK A01 T03140121  RH  031%=      5-min Rain = 0
KBO1 112053Z 16016KT 31/12 A3011 RMK A01 T03120122  RH  031%=      5-min Rain = 0
KBO1 112054Z 17016KT 31/12 A3011 RMK A01 T03090123  RH  032%=      5-min Rain = 0
KBO1 112055Z 14017G22KT 31/12 A3011 RMK A01 T03080123  RH  032%=      5-min Rain = 0
KBO1 112056Z 15022KT 31/12 A3011 RMK A01 T03080124  RH  032%=      5-min Rain = 0
KBO1 112057Z 15017KT 31/12 A3011 RMK A01 T03110124  RH  032%=      5-min Rain = 0
KBO1 112058Z 15014KT 31/13 A3011 RMK A01 T03130125  RH  032%=      5-min Rain = 0
KBO1 112059Z 16018KT 31/13 A3011 RMK A01 T03140125  RH  031%=      5-min Rain = 0
KBO1 112100Z 16020KT 32/12 A3011 RMK A01 T03150123  RH  031%=      5-min Rain = 0
KBO1 112101Z 17016G21KT 32/12 A3011 RMK A01 T03150121  RH  030%=      5-min Rain = 0
KBO1 112102Z 18015KT 32/12 A3011 RMK A01 T03160121  RH  030%=      5-min Rain = 0
KBO1 112103Z 18012G17KT 32/12 A3011 RMK A01 T03150121  RH  030%=      5-min Rain = 0
KBO1 112104Z 18015KT 32/12 A3011 RMK A01 T03150123  RH  031%=      5-min Rain = 0
KBO1 112105Z 17014KT 32/12 A3011 RMK A01 T03170122  RH  030%=      5-min Rain = 0
KBO1 112106Z 17014G19KT 31/12 A3011 RMK A01 T03140123  RH  031%=      5-min Rain = 0
KBO1 112107Z 15017G22KT 32/12 A3011 RMK A01 T03190124  RH  030%=      5-min Rain = 0
KBO1 112108Z 16016G21KT 32/12 A3011 RMK A01 T03220123  RH  030%=      5-min Rain = 0
KBO1 112109Z 15016KT 32/12 A3011 RMK A01 T03210122  RH  030%=      5-min Rain = 0
KBO1 112110Z 15014KT 32/12 A3011 RMK A01 T03210120  RH  029%=      5-min Rain = 0
KBO1 112111Z 16012KT 32/12 A3011 RMK A01 T03160120  RH  030%=      5-min Rain = 0
KBO1 112112Z 16016KT 31/12 A3011 RMK A01 T03120121  RH  031%=      5-min Rain = 0
KBO1 112113Z 15013KT 31/12 A3011 RMK A01 T03100122  RH  032%=      5-min Rain = 0
KBO1 112114Z 16018KT 31/12 A3011 RMK A01 T03110124  RH  032%=      5-min Rain = 0
KBO1 112115Z 16017KT 32/13 A3011 RMK A01 T03170128  RH  032%=      5-min Rain = 0
KBO1 112116Z 15018KT 32/13 A3011 RMK A01 T03200128  RH  031%=      5-min Rain = 0
KBO1 112117Z 16019KT 32/13 A3011 RMK A01 T03190128  RH  031%=      5-min Rain = 0
KBO1 112118Z 14019G24KT 32/13 A3011 RMK A01 T03160128  RH  032%=      5-min Rain = 0
KBO1 112119Z 14021KT 31/13 A3011 RMK A01 T03130128  RH  032%=      5-min Rain = 0
KBO1 112120Z 14019KT 31/13 A3011 RMK A01 T03080128  RH  033%=      5-min Rain = 0
KBO1 112121Z 14016KT 31/13 A3011 RMK A01 T03050128  RH  034%=      5-min Rain = 0
KBO1 112122Z 15016KT 31/13 A3011 RMK A01 T03050129  RH  034%=      5-min Rain = 0
KBO1 112123Z 15018KT 31/13 A3011 RMK A01 T03050128  RH  034%=      5-min Rain = 0
KBO1 112124Z 15016KT 31/13 A3011 RMK A01 T03060127  RH  034%=      5-min Rain = 0
KBO1 112125Z 15013KT 31/13 A3011 RMK A01 T03060128  RH  034%=      5-min Rain = 0
KBO1 112126Z 16012KT 31/13 A3011 RMK A01 T03100131  RH  033%=      5-min Rain = 0
KBO1 112127Z 17018KT 32/13 A3011 RMK A01 T03160129  RH  032%=      5-min Rain = 0
KBO1 112128Z 18018KT 32/12 A3011 RMK A01 T03190124  RH  030%=      5-min Rain = 0
KBO1 112129Z 17015KT 32/12 A3011 RMK A01 T03160122  RH  030%=      5-min Rain = 0
KBO1 112130Z 18014KT 31/13 A3011 RMK A01 T03140125  RH  032%=      5-min Rain = 0
KBO1 112131Z 18014KT 32/12 A301 RMK A01 T03160124  RH  031%=      5-min Rain = 0
KBO1 112132Z 17016KT 31/13 A301 RMK A01 T03140125  RH  031%=      5-min Rain = 0
KBO1 112133Z 16016KT 31/13 A301 RMK A01 T03110127  RH  032%=      5-min Rain = 0
KBO1 112134Z 16018KT 31/13 A301 RMK A01 T03110129  RH  033%=      5-min Rain = 0
KBO1 112135Z 16018KT 31/13 A301 RMK A01 T03140130  RH  033%=      5-min Rain = 0
KBO1 112136Z 16015G21KT 32/13 A301 RMK A01 T03200133  RH  032%=      5-min Rain = 0
KBO1 112137Z 16022KT 33/13 A301 RMK A01 T03250133  RH  031%=      5-min Rain = 0
KBO1 112138Z 16019G24KT 32/13 A301 RMK A01 T03230132  RH  031%=      5-min Rain = 0
KBO1 112139Z 16021G26KT 32/13 A301 RMK A01 T03200133  RH  032%=      5-min Rain = 0
KBO1 112140Z 15023G28KT 32/13 A301 RMK A01 T03210132  RH  032%=      5-min Rain = 0
KBO1 112141Z 15018KT 32/13 A301 RMK A01 T03210131  RH  032%=      5-min Rain = 0
KBO1 112142Z 15017KT 32/13 A301 RMK A01 T03160129  RH  032%=      5-min Rain = 0
KBO1 112143Z 14015KT 31/13 A301 RMK A01 T03100129  RH  033%=      5-min Rain = 0
KBO1 112144Z 14015KT 31/13 A301 RMK A01 T03060130  RH  034%=      5-min Rain = 0
KBO1 112145Z 15014KT 31/13 A301 RMK A01 T03050130  RH  034%=      5-min Rain = 0
KBO1 112146Z 13013G21KT 31/13 A301 RMK A01 T03070130  RH  034%=      5-min Rain = 0
KBO1 112147Z 17021G30KT 31/13 A3009 RMK A01 T03120133  RH  034%=      5-min Rain = 0
KBO1 112148Z 19018KT 32/13 A301 RMK A01 T03210132  RH  032%=      5-min Rain = 0
KBO1 112149Z 19017G22KT 32/13 A301 RMK A01 T03230129  RH  031%=      5-min Rain = 0
KBO1 112150Z 18016KT 32/13 A301 RMK A01 T03200127  RH  031%=      5-min Rain = 0
KBO1 112151Z 18018KT 31/13 A301 RMK A01 T03140127  RH  032%=      5-min Rain = 0
KBO1 112152Z 18018KT 31/13 A301 RMK A01 T03100126  RH  032%=      5-min Rain = 0
KBO1 112153Z 18018G23KT 31/13 A301 RMK A01 T03080126  RH  033%=      5-min Rain = 0
KBO1 112154Z 18020G25KT 31/13 A3009 RMK A01 T03110128  RH  033%=      5-min Rain = 0
KBO1 112155Z 18017KT 32/13 A301 RMK A01 T03160126  RH  031%=      5-min Rain = 0
KBO1 112156Z 19013G18KT 32/13 A3009 RMK A01 T03180125  RH  031%=      5-min Rain = 0
KBO1 112157Z 18016KT 32/13 A3009 RMK A01 T03180126  RH  031%=      5-min Rain = 0
KBO1 112158Z 18012KT 32/13 A3009 RMK A01 T03180129  RH  031%=      5-min Rain = 0
KBO1 112159Z 16017KT 32/13 A3009 RMK A01 T03230128  RH  031%=      5-min Rain = 0
KBO1 112200Z 15013KT 32/13 A3009 RMK A01 T03230126  RH  030%=      5-min Rain = 0
KBO1 112201Z 16012G17KT 32/13 A3009 RMK A01 T03230128  RH  031%=      5-min Rain = 0
KBO1 112202Z 19015G21KT 32/13 A3009 RMK A01 T03240128  RH  030%=      5-min Rain = 0
KBO1 112203Z 19016KT 33/13 A3009 RMK A01 T03260125  RH  029%=      5-min Rain = 0
KBO1 112204Z 20015KT 33/13 A3009 RMK A01 T03270125  RH  029%=      5-min Rain = 0
KBO1 112205Z 20014KT 33/13 A3009 RMK A01 T03270125  RH  029%=      5-min Rain = 0
KBO1 112206Z 19015KT 33/13 A3009 RMK A01 T03270126  RH  029%=      5-min Rain = 0
KBO1 112207Z 18014KT 33/13 A3009 RMK A01 T03270126  RH  029%=      5-min Rain = 0
KBO1 112208Z 19014KT 33/13 A3009 RMK A01 T03250126  RH  030%=      5-min Rain = 0
KBO1 112209Z 18013KT 33/13 A3009 RMK A01 T03270125  RH  029%=      5-min Rain = 0
KBO1 112210Z 17017KT 33/13 A3009 RMK A01 T03280130  RH  030%=      5-min Rain = 0
KBO1 112211Z 17016KT 33/13 A3009 RMK A01 T03290132  RH  030%=      5-min Rain = 0
KBO1 112212Z 16019KT 33/13 A3009 RMK A01 T03310133  RH  030%=      5-min Rain = 0
KBO1 112213Z 15019KT 33/13 A3009 RMK A01 T03290130  RH  030%=      5-min Rain = 0
KBO1 112214Z 15016G21KT 32/13 A3009 RMK A01 T03240131  RH  031%=      5-min Rain = 0
KBO1 112215Z 16017KT 33/13 A3009 RMK A01 T03260131  RH  031%=      5-min Rain = 0
KBO1 112216Z 16013KT 33/13 A3009 RMK A01 T03270132  RH  031%=      5-min Rain = 0
KBO1 112217Z 15015KT 33/13 A3009 RMK A01 T03320133  RH  030%=      5-min Rain = 0
KBO1 112218Z 16014KT 33/13 A3009 RMK A01 T03330132  RH  030%=      5-min Rain = 0
KBO1 112219Z 17014KT 33/13 A3008 RMK A01 T03310131  RH  030%=      5-min Rain = 0
KBO1 112220Z 17017G23KT 33/13 A3008 RMK A01 T03280132  RH  030%=      5-min Rain = 0
KBO1 112221Z 19018KT 33/13 A3008 RMK A01 T03270129  RH  030%=      5-min Rain = 0
KBO1 112222Z 18015KT 33/13 A3008 RMK A01 T03270128  RH  030%=      5-min Rain = 0
KBO1 112223Z 19019KT 33/13 A3008 RMK A01 T03280128  RH  030%=      5-min Rain = 0
KBO1 112224Z 18017KT 33/13 A3008 RMK A01 T03270127  RH  030%=      5-min Rain = 0
KBO1 112225Z 19016KT 33/13 A3008 RMK A01 T03260126  RH  029%=      5-min Rain = 0
KBO1 112226Z 18017KT 33/13 A3008 RMK A01 T03250126  RH  030%=      5-min Rain = 0
KBO1 112227Z 17016KT 32/13 A3008 RMK A01 T03240126  RH  030%=      5-min Rain = 0
KBO1 112228Z 17014KT 32/13 A3008 RMK A01 T03230127  RH  030%=      5-min Rain = 0
KBO1 112229Z 18017KT 32/13 A3008 RMK A01 T03220127  RH  030%=      5-min Rain = 0
KBO1 112230Z 16020G31KT 32/13 A3008 RMK A01 T03220127  RH  031%=      5-min Rain = 0
KBO1 112231Z 16018G24KT 32/13 A3008 RMK A01 T03210126  RH  031%=      5-min Rain = 0
KBO1 112232Z 16021KT 32/12 A3008 RMK A01 T03180124  RH  031%=      5-min Rain = 0
KBO1 112233Z 16015KT 31/12 A3008 RMK A01 T03130123  RH  031%=      5-min Rain = 0
KBO1 112234Z 16016KT 31/12 A3008 RMK A01 T03130124  RH  031%=      5-min Rain = 0
KBO1 112235Z 18015KT 31/12 A3008 RMK A01 T03130123  RH  031%=      5-min Rain = 0
KBO1 112236Z 18014G22KT 32/13 A3008 RMK A01 T03150126  RH  031%=      5-min Rain = 0
KBO1 112237Z 18020KT 32/13 A3008 RMK A01 T03220128  RH  031%=      5-min Rain = 0
KBO1 112238Z 18021KT 32/13 A3008 RMK A01 T03230127  RH  030%=      5-min Rain = 0
KBO1 112239Z 17019KT 32/13 A3008 RMK A01 T03230126  RH  030%=      5-min Rain = 0
KBO1 112240Z 17017KT 32/13 A3008 RMK A01 T03240126  RH  030%=      5-min Rain = 0
KBO1 112241Z 18018G23KT 33/13 A3008 RMK A01 T03250127  RH  030%=      5-min Rain = 0
KBO1 112242Z 17018KT 33/13 A3008 RMK A01 T03250126  RH  030%=      5-min Rain = 0
KBO1 112243Z 16015KT 32/13 A3008 RMK A01 T03230126  RH  030%=      5-min Rain = 0
KBO1 112244Z 17016KT 32/13 A3008 RMK A01 T03220125  RH  030%=      5-min Rain = 0
KBO1 112245Z 18015KT 32/13 A3008 RMK A01 T03200126  RH  031%=      5-min Rain = 0
KBO1 112246Z 16016KT 32/13 A3008 RMK A01 T03200126  RH  031%=      5-min Rain = 0
KBO1 112247Z 15016KT 32/13 A3008 RMK A01 T03200125  RH  030%=      5-min Rain = 0
KBO1 112248Z 16018G23KT 32/13 A3008 RMK A01 T03210126  RH  030%=      5-min Rain = 0
KBO1 112249Z 16019KT 32/13 A3008 RMK A01 T03230126  RH  030%=      5-min Rain = 0
KBO1 112250Z 16018KT 32/12 A3008 RMK A01 T03240124  RH  030%=      5-min Rain = 0
KBO1 112251Z 16014KT 32/13 A3008 RMK A01 T03230125  RH  030%=      5-min Rain = 0
KBO1 112252Z 16014G19KT 32/13 A3008 RMK A01 T03230125  RH  030%=      5-min Rain = 0
KBO1 112253Z 15017G22KT 32/13 A3008 RMK A01 T03240126  RH  030%=      5-min Rain = 0
KBO1 112254Z 16019KT 33/12 A3008 RMK A01 T03250124  RH  029%=      5-min Rain = 0
KBO1 112255Z 18018KT 32/13 A3008 RMK A01 T03230125  RH  030%=      5-min Rain = 0
KBO1 112256Z 17019KT 32/12 A3008 RMK A01 T03190124  RH  030%=      5-min Rain = 0
KBO1 112257Z 18015KT 32/12 A3008 RMK A01 T03170124  RH  031%=      5-min Rain = 0
KBO1 112258Z 17015G21KT 32/13 A3008 RMK A01 T03190125  RH  031%=      5-min Rain = 0
KBO1 112259Z 17017KT 32/13 A3008 RMK A01 T03220126  RH  030%=      5-min Rain = 0
KBO1 112300Z 17015KT 32/12 A3008 RMK A01 T03240124  RH  030%=      5-min Rain = 0
KBO1 112301Z 17017KT 32/12 A3008 RMK A01 T03240123  RH  029%=      5-min Rain = 0
KBO1 112302Z 17016KT 32/13 A3008 RMK A01 T03240125  RH  030%=      5-min Rain = 0
KBO1 112303Z 16018G23KT 32/13 A3008 RMK A01 T03220128  RH  031%=      5-min Rain = 0
KBO1 112304Z 16015KT 32/13 A3008 RMK A01 T03220128  RH  031%=      5-min Rain = 0
KBO1 112305Z 16016KT 32/13 A3008 RMK A01 T03240128  RH  030%=      5-min Rain = 0
KBO1 112306Z 16014KT 32/13 A3008 RMK A01 T03230128  RH  030%=      5-min Rain = 0
KBO1 112307Z 16016KT 32/13 A3008 RMK A01 T03230128  RH  031%=      5-min Rain = 0
KBO1 112308Z 15017KT 32/13 A3008 RMK A01 T03230127  RH  030%=      5-min Rain = 0
KBO1 112309Z 14015KT 32/13 A3008 RMK A01 T03230128  RH  031%=      5-min Rain = 0
KBO1 112310Z 15016KT 32/13 A3008 RMK A01 T03230128  RH  030%=      5-min Rain = 0
KBO1 112311Z 16018KT 32/13 A3008 RMK A01 T03240127  RH  030%=      5-min Rain = 0
KBO1 112312Z 16017KT 32/13 A3008 RMK A01 T03240126  RH  030%=      5-min Rain = 0
KBO1 112313Z 16018G24KT 32/13 A3008 RMK A01 T03230126  RH  030%=      5-min Rain = 0
KBO1 112314Z 16021KT 32/13 A3008 RMK A01 T03230129  RH  031%=      5-min Rain = 0
KBO1 112315Z 16020KT 32/13 A3008 RMK A01 T03230128  RH  031%=      5-min Rain = 0
KBO1 112316Z 15019KT 32/13 A3008 RMK A01 T03210128  RH  031%=      5-min Rain = 0
KBO1 112317Z 16016KT 32/13 A3009 RMK A01 T03210129  RH  031%=      5-min Rain = 0
KBO1 112318Z 15018KT 32/13 A3009 RMK A01 T03220128  RH  031%=      5-min Rain = 0
KBO1 112319Z 16014KT 32/13 A3009 RMK A01 T03190126  RH  031%=      5-min Rain = 0
KBO1 112320Z 15015G21KT 32/13 A3009 RMK A01 T03190128  RH  031%=      5-min Rain = 0
KBO1 112321Z 15019KT 32/13 A3009 RMK A01 T03200128  RH  031%=      5-min Rain = 0
KBO1 112322Z 15019KT 32/13 A3009 RMK A01 T03170127  RH  032%=      5-min Rain = 0
KBO1 112323Z 15015KT 31/13 A3009 RMK A01 T03120127  RH  032%=      5-min Rain = 0
KBO1 112324Z 17018KT 31/13 A3009 RMK A01 T03100127  RH  033%=      5-min Rain = 0
KBO1 112325Z 18019KT 31/13 A3009 RMK A01 T03090128  RH  033%=      5-min Rain = 0
KBO1 112326Z 17020KT 31/13 A3009 RMK A01 T03110130  RH  033%=      5-min Rain = 0
KBO1 112327Z 16018KT 32/13 A3009 RMK A01 T03150131  RH  033%=      5-min Rain = 0
KBO1 112328Z 16020KT 32/13 A3009 RMK A01 T03170131  RH  032%=      5-min Rain = 0
KBO1 112329Z 17016KT 32/13 A3009 RMK A01 T03170130  RH  032%=      5-min Rain = 0
KBO1 112330Z 17017KT 32/13 A3009 RMK A01 T03160130  RH  032%=      5-min Rain = 0
KBO1 112331Z 16017KT 31/13 A3009 RMK A01 T03130130  RH  033%=      5-min Rain = 0
KBO1 112332Z 15016KT 31/13 A3009 RMK A01 T03100130  RH  033%=      5-min Rain = 0
KBO1 112333Z 15016KT 31/13 A3009 RMK A01 T03070130  RH  034%=      5-min Rain = 0
KBO1 112334Z 15017KT 31/13 A3009 RMK A01 T03060130  RH  034%=      5-min Rain = 0
KBO1 112335Z 15016KT 31/13 A3009 RMK A01 T03060129  RH  034%=      5-min Rain = 0
KBO1 112336Z 15013KT 31/13 A3009 RMK A01 T03070131  RH  034%=      5-min Rain = 0
KBO1 112337Z 16019KT 31/13 A3009 RMK A01 T03120132  RH  033%=      5-min Rain = 0
KBO1 112338Z 17019KT 31/13 A3009 RMK A01 T03140130  RH  032%=      5-min Rain = 0
KBO1 112339Z 17019KT 32/13 A3009 RMK A01 T03150129  RH  032%=      5-min Rain = 0
KBO1 112340Z 16018KT 32/13 A3009 RMK A01 T03150130  RH  032%=      5-min Rain = 0
KBO1 112341Z 16015KT 31/13 A3009 RMK A01 T03140130  RH  033%=      5-min Rain = 0
KBO1 112342Z 15014KT 31/13 A3009 RMK A01 T03110129  RH  033%=      5-min Rain = 0
KBO1 112343Z 15014KT 31/13 A3009 RMK A01 T03090130  RH  033%=      5-min Rain = 0
KBO1 112344Z 15017KT 31/13 A3009 RMK A01 T03070129  RH  034%=      5-min Rain = 0
KBO1 112345Z 15016KT 31/13 A3009 RMK A01 T03070128  RH  034%=      5-min Rain = 0
KBO1 112346Z 16018KT 31/13 A3009 RMK A01 T03060127  RH  033%=      5-min Rain = 0
KBO1 112347Z 15017KT 31/13 A3009 RMK A01 T03070128  RH  033%=      5-min Rain = 0
KBO1 112348Z 16015KT 31/13 A3009 RMK A01 T03070129  RH  034%=      5-min Rain = 0
KBO1 112349Z 15017KT 31/13 A3009 RMK A01 T03110131  RH  033%=      5-min Rain = 0
KBO1 112350Z 15017KT 31/13 A3009 RMK A01 T03130131  RH  033%=      5-min Rain = 0
KBO1 112351Z 16018KT 31/13 A3009 RMK A01 T03140130  RH  033%=      5-min Rain = 0
KBO1 112352Z 15015KT 31/13 A3009 RMK A01 T03140131  RH  033%=      5-min Rain = 0
KBO1 112353Z 14016KT 31/13 A3009 RMK A01 T03140130  RH  032%=      5-min Rain = 0
KBO1 112354Z 14015KT 31/13 A3009 RMK A01 T03130129  RH  033%=      5-min Rain = 0
KBO1 112355Z 15012KT 31/13 A3009 RMK A01 T03120130  RH  033%=      5-min Rain = 0
KBO1 112356Z 14012KT 31/13 A3009 RMK A01 T03130130  RH  033%=      5-min Rain = 0
KBO1 112357Z 15012KT 31/13 A3009 RMK A01 T03130130  RH  033%=      5-min Rain = 0
KBO1 112358Z 16015KT 31/13 A3009 RMK A01 T03140130  RH  032%=      5-min Rain = 0
KBO1 112359Z 16016KT 32/13 A3009 RMK A01 T03150129  RH  032%=      5-min Rain = 0
KBO1 120000Z 16016KT 32/13 A3009 RMK A01 T03160128  RH  032%=      5-min Rain = 0
KBO1 120001Z 17014KT 32/13 A3009 RMK A01 T03170127  RH  031%=      5-min Rain = 0
KBO1 120002Z 17012KT 32/13 A3009 RMK A01 T03160127  RH  031%=      5-min Rain = 0
KBO1 120003Z 18015KT 32/13 A3009 RMK A01 T03160127  RH  032%=      5-min Rain = 0
KBO1 120004Z 18015KT 32/13 A3009 RMK A01 T03160126  RH  031%=      5-min Rain = 0
KBO1 120005Z 17010KT 32/13 A3009 RMK A01 T03150126  RH  031%=      5-min Rain = 0
KBO1 120006Z 16012KT 32/13 A3009 RMK A01 T03150126  RH  031%=      5-min Rain = 0
KBO1 120007Z 16014KT 32/12 A3009 RMK A01 T03150124  RH  031%=      5-min Rain = 0
KBO1 120008Z 15012KT 31/12 A3009 RMK A01 T03130124  RH  031%=      5-min Rain = 0
KBO1 120009Z 16013KT 31/13 A3009 RMK A01 T03130126  RH  032%=      5-min Rain = 0
KBO1 120010Z 16013KT 32/13 A3009 RMK A01 T03150125  RH  031%=      5-min Rain = 0
KBO1 120011Z 15013KT 32/13 A3009 RMK A01 T03150126  RH  032%=      5-min Rain = 0
KBO1 120012Z 16014KT 32/13 A3009 RMK A01 T03150126  RH  032%=      5-min Rain = 0
KBO1 120013Z 16013KT 31/13 A3009 RMK A01 T03140126  RH  032%=      5-min Rain = 0
KBO1 120014Z 16015KT 31/13 A3009 RMK A01 T03140126  RH  032%=      5-min Rain = 0
KBO1 120015Z 16014KT 31/12 A3009 RMK A01 T03140124  RH  031%=      5-min Rain = 0
KBO1 120016Z 15015KT 31/12 A3009 RMK A01 T03120124  RH  032%=      5-min Rain = 0
KBO1 120017Z 16013KT 31/12 A3009 RMK A01 T03110124  RH  032%=      5-min Rain = 0
KBO1 120018Z 17012KT 31/13 A3009 RMK A01 T03110126  RH  032%=      5-min Rain = 0
KBO1 120019Z 17013KT 31/13 A3009 RMK A01 T03120126  RH  032%=      5-min Rain = 0
KBO1 120020Z 17013KT 31/13 A3009 RMK A01 T03130127  RH  032%=      5-min Rain = 0
KBO1 120021Z 17016KT 31/13 A3009 RMK A01 T03100126  RH  032%=      5-min Rain = 0
KBO1 120022Z 16017KT 31/13 A3009 RMK A01 T03060126  RH  033%=      5-min Rain = 0
KBO1 120023Z 16019KT 30/13 A3009 RMK A01 T03040125  RH  033%=      5-min Rain = 0
KBO1 120024Z 17019KT 30/13 A3009 RMK A01 T03020126  RH  034%=      5-min Rain = 0
KBO1 120025Z 17016KT 30/13 A3009 RMK A01 T03010125  RH  034%=      5-min Rain = 0
KBO1 120026Z 17013KT 30/13 A3009 RMK A01 T03000125  RH  034%=      5-min Rain = 0
KBO1 120027Z 17013G18KT 30/13 A3009 RMK A01 T02990126  RH  034%=      5-min Rain = 0
KBO1 120028Z 17014KT 30/13 A3009 RMK A01 T02990126  RH  035%=      5-min Rain = 0
KBO1 120029Z 18015KT 30/13 A3009 RMK A01 T02980126  RH  035%=      5-min Rain = 0
KBO1 120030Z 17015KT 30/13 A3009 RMK A01 T02980127  RH  035%=      5-min Rain = 0
KBO1 120031Z 17017KT 30/13 A3009 RMK A01 T02980127  RH  035%=      5-min Rain = 0
KBO1 120032Z 17015KT 30/13 A3009 RMK A01 T02970127  RH  035%=      5-min Rain = 0
KBO1 120033Z 18015KT 30/13 A3009 RMK A01 T02960127  RH  035%=      5-min Rain = 0
KBO1 120034Z 18015KT 30/13 A3009 RMK A01 T02960127  RH  035%=      5-min Rain = 0
KBO1 120035Z 18015KT 30/13 A3009 RMK A01 T02950127  RH  036%=      5-min Rain = 0
KBO1 120036Z 18014KT 29/13 A3009 RMK A01 T02940127  RH  036%=      5-min Rain = 0
KBO1 120037Z 18014KT 29/13 A3009 RMK A01 T02940127  RH  036%=      5-min Rain = 0
KBO1 120038Z 18015KT 29/13 A3009 RMK A01 T02930126  RH  036%=      5-min Rain = 0
KBO1 120039Z 18015KT 29/13 A3009 RMK A01 T02930127  RH  036%=      5-min Rain = 0
KBO1 120040Z 18013KT 29/13 A3009 RMK A01 T02930126  RH  036%=      5-min Rain = 0
KBO1 120041Z 17014KT 29/13 A3009 RMK A01 T02930126  RH  036%=      5-min Rain = 0
KBO1 120042Z 18013KT 29/13 A3009 RMK A01 T02920126  RH  036%=      5-min Rain = 0
KBO1 120043Z 18014KT 29/13 A3009 RMK A01 T02920126  RH  036%=      5-min Rain = 0
KBO1 120044Z 18014KT 29/13 A3009 RMK A01 T02920125  RH  036%=      5-min Rain = 0
KBO1 120045Z 18012KT 29/13 A3009 RMK A01 T02920126  RH  036%=      5-min Rain = 0
KBO1 120046Z 18011KT 29/13 A3009 RMK A01 T02910126  RH  036%=      5-min Rain = 0
KBO1 120047Z 18013KT 29/13 A3009 RMK A01 T02900126  RH  036%=      5-min Rain = 0
KBO1 120048Z 18012KT 29/13 A3009 RMK A01 T02900125  RH  036%=      5-min Rain = 0
KBO1 120049Z 18013KT 29/13 A3009 RMK A01 T02900126  RH  036%=      5-min Rain = 0
KBO1 120050Z 19013KT 29/13 A3009 RMK A01 T02900126  RH  036%=      5-min Rain = 0
KBO1 120051Z 19014KT 29/13 A3009 RMK A01 T02890125  RH  036%=      5-min Rain = 0
KBO1 120052Z 18012KT 29/13 A301 RMK A01 T02890125  RH  036%=      5-min Rain = 0
KBO1 120053Z 18012KT 29/13 A301 RMK A01 T02890125  RH  036%=      5-min Rain = 0
KBO1 120054Z 18014KT 29/13 A301 RMK A01 T02890125  RH  036%=      5-min Rain = 0
KBO1 120055Z 18013KT 29/12 A301 RMK A01 T02890124  RH  036%=      5-min Rain = 0
KBO1 120056Z 18012KT 29/12 A301 RMK A01 T02890124  RH  036%=      5-min Rain = 0
KBO1 120057Z 18011KT 29/13 A301 RMK A01 T02890125  RH  036%=      5-min Rain = 0
KBO1 120058Z 18010KT 29/13 A301 RMK A01 T02880125  RH  036%=      5-min Rain = 0
KBO1 120059Z 18010KT 29/13 A301 RMK A01 T02880125  RH  037%=      5-min Rain = 0
KBO1 120100Z 18010KT 29/13 A301 RMK A01 T02870125  RH  037%=      5-min Rain = 0
KBO1 120101Z 18011KT 29/13 A301 RMK A01 T02870125  RH  037%=      5-min Rain = 0
KBO1 120102Z 18010KT 29/13 A301 RMK A01 T02870125  RH  037%=      5-min Rain = 0
KBO1 120103Z 18010KT 29/13 A301 RMK A01 T02860125  RH  037%=      5-min Rain = 0
KBO1 120104Z 18010KT 29/13 A301 RMK A01 T02860125  RH  037%=      5-min Rain = 0
KBO1 120105Z 18011KT 29/13 A301 RMK A01 T02850125  RH  037%=      5-min Rain = 0
KBO1 120106Z 18011KT 29/13 A301 RMK A01 T02850125  RH  037%=      5-min Rain = 0
KBO1 120107Z 18011KT 29/13 A3011 RMK A01 T02850125  RH  037%=      5-min Rain = 0
KBO1 120108Z 18012KT 29/12 A3011 RMK A01 T02850124  RH  037%=      5-min Rain = 0
KBO1 120109Z 18011KT 29/12 A3011 RMK A01 T02850124  RH  037%=      5-min Rain = 0
KBO1 120110Z 18011KT 29/12 A3011 RMK A01 T02850123  RH  037%=      5-min Rain = 0
KBO1 120111Z 18011KT 29/12 A3011 RMK A01 T02850124  RH  037%=      5-min Rain = 0
KBO1 120112Z 18011KT 29/12 A3011 RMK A01 T02850124  RH  037%=      5-min Rain = 0
KBO1 120113Z 18011KT 29/12 A3011 RMK A01 T02850124  RH  037%=      5-min Rain = 0
KBO1 120114Z 18010KT 28/12 A3011 RMK A01 T02840123  RH  037%=      5-min Rain = 0
KBO1 120115Z 18010KT 28/12 A3011 RMK A01 T02840124  RH  037%=      5-min Rain = 0
KBO1 120116Z 19011KT 28/12 A3011 RMK A01 T02830123  RH  037%=      5-min Rain = 0
KBO1 120117Z 19010KT 28/12 A3011 RMK A01 T02830123  RH  037%=      5-min Rain = 0
KBO1 120118Z 19010KT 28/12 A3011 RMK A01 T02830122  RH  037%=      5-min Rain = 0
KBO1 120119Z 19010KT 28/12 A3011 RMK A01 T02820122  RH  037%=      5-min Rain = 0
KBO1 120120Z 19010KT 28/12 A3011 RMK A01 T02830122  RH  037%=      5-min Rain = 0
KBO1 120121Z 19011KT 28/12 A3012 RMK A01 T02830122  RH  037%=      5-min Rain = 0
KBO1 120122Z 19010KT 28/12 A3012 RMK A01 T02830122  RH  037%=      5-min Rain = 0
KBO1 120123Z 19011KT 28/12 A3012 RMK A01 T02820122  RH  037%=      5-min Rain = 0
KBO1 120124Z 20009KT 28/12 A3012 RMK A01 T02820122  RH  037%=      5-min Rain = 0
KBO1 120125Z 21009KT 28/12 A3012 RMK A01 T02820122  RH  037%=      5-min Rain = 0
KBO1 120126Z 21008KT 28/12 A3012 RMK A01 T02830122  RH  037%=      5-min Rain = 0
KBO1 120127Z 23007KT 28/12 A3012 RMK A01 T02820122  RH  037%=      5-min Rain = 0
KBO1 120128Z 24006KT 28/12 A3012 RMK A01 T02820123  RH  037%=      5-min Rain = 0
KBO1 120129Z 24008KT 28/13 A3012 RMK A01 T02810130  RH  039%=      5-min Rain = 0
KBO1 120130Z 25008KT 28/14 A3012 RMK A01 T02800137  RH  041%=      5-min Rain = 0
KBO1 120131Z 25007KT 28/14 A3012 RMK A01 T02790142  RH  043%=      5-min Rain = 0
KBO1 120132Z 25007KT 28/14 A3012 RMK A01 T02770143  RH  044%=      5-min Rain = 0
KBO1 120133Z 25008KT 28/14 A3012 RMK A01 T02750143  RH  044%=      5-min Rain = 0
KBO1 120134Z 25009KT 27/15 A3012 RMK A01 T02740145  RH  045%=      5-min Rain = 0
KBO1 120135Z 25009KT 27/15 A3012 RMK A01 T02730145  RH  045%=      5-min Rain = 0
KBO1 120136Z 25010KT 27/15 A3013 RMK A01 T02720145  RH  046%=      5-min Rain = 0
KBO1 120137Z 25010KT 27/15 A3013 RMK A01 T02720145  RH  046%=      5-min Rain = 0
KBO1 120138Z 26009KT 27/14 A3013 RMK A01 T02710144  RH  046%=      5-min Rain = 0
KBO1 120139Z 26008KT 27/15 A3013 RMK A01 T02710145  RH  046%=      5-min Rain = 0
KBO1 120140Z 26009KT 27/15 A3013 RMK A01 T02710145  RH  046%=      5-min Rain = 0
KBO1 120141Z 26009KT 27/14 A3013 RMK A01 T02710144  RH  046%=      5-min Rain = 0
KBO1 120142Z 26008KT 27/14 A3013 RMK A01 T02700144  RH  046%=      5-min Rain = 0
KBO1 120143Z 26008KT 27/14 A3013 RMK A01 T02700144  RH  046%=      5-min Rain = 0
KBO1 120144Z 27008KT 27/14 A3013 RMK A01 T02700144  RH  046%=      5-min Rain = 0
KBO1 120145Z 27008KT 27/14 A3013 RMK A01 T02690144  RH  046%=      5-min Rain = 0
KBO1 120146Z 27010KT 27/15 A3013 RMK A01 T02690145  RH  046%=      5-min Rain = 0
KBO1 120147Z 28009KT 27/14 A3013 RMK A01 T02680144  RH  047%=      5-min Rain = 0
KBO1 120148Z 28011KT 27/15 A3013 RMK A01 T02680145  RH  047%=      5-min Rain = 0
KBO1 120149Z 29012KT 27/14 A3014 RMK A01 T02680144  RH  047%=      5-min Rain = 0
KBO1 120150Z 30013KT 27/15 A3014 RMK A01 T02680145  RH  047%=      5-min Rain = 0
KBO1 120151Z 31018KT 27/14 A3014 RMK A01 T02650142  RH  047%=      5-min Rain = 0
KBO1 120152Z 31017KT 25/14 A3014 RMK A01 T02540137  RH  048%=      5-min Rain = 0
KBO1 120153Z 30015KT 24/14 A3014 RMK A01 T02440137  RH  051%=      5-min Rain = 0
KBO1 120154Z 31017KT 24/14 A3014 RMK A01 T02380139  RH  054%=      5-min Rain = 0
KBO1 120155Z 31017KT 23/14 A3014 RMK A01 T02330139  RH  055%=      5-min Rain = 0
KBO1 120156Z 31015KT 23/14 A3014 RMK A01 T02290139  RH  057%=      5-min Rain = 0
KBO1 120157Z 31014KT 23/14 A3014 RMK A01 T02270140  RH  058%=      5-min Rain = 0
KBO1 120158Z 31013KT 23/14 A3014 RMK A01 T02250140  RH  059%=      5-min Rain = 0
KBO1 120159Z 31016KT 22/14 A3014 RMK A01 T02240140  RH  059%=      5-min Rain = 0
KBO1 120200Z 31014KT 22/14 A3014 RMK A01 T02230140  RH  059%=      5-min Rain = 0
KBO1 120201Z 31013KT 22/14 A3014 RMK A01 T02220141  RH  060%=      5-min Rain = 0
KBO1 120202Z 31014KT 22/14 A3014 RMK A01 T02220141  RH  060%=      5-min Rain = 0
KBO1 120203Z 31016KT 22/14 A3014 RMK A01 T02210141  RH  061%=      5-min Rain = 0
KBO1 120204Z 31014KT 22/14 A3014 RMK A01 T02200141  RH  061%=      5-min Rain = 0
KBO1 120205Z 31014KT 22/14 A3015 RMK A01 T02190142  RH  061%=      5-min Rain = 0
KBO1 120206Z 31012KT 22/14 A3015 RMK A01 T02190142  RH  062%=      5-min Rain = 0
KBO1 120207Z 32013KT 22/14 A3015 RMK A01 T02180143  RH  062%=      5-min Rain = 0
KBO1 120208Z 32015KT 22/14 A3015 RMK A01 T02170143  RH  063%=      5-min Rain = 0
KBO1 120209Z 32014KT 22/14 A3015 RMK A01 T02160143  RH  063%=      5-min Rain = 0
KBO1 120210Z 32014KT 22/14 A3015 RMK A01 T02160143  RH  063%=      5-min Rain = 0
KBO1 120211Z 32015KT 22/14 A3015 RMK A01 T02160143  RH  063%=      5-min Rain = 0
KBO1 120212Z 32013KT 22/14 A3015 RMK A01 T02150143  RH  064%=      5-min Rain = 0
KBO1 120213Z 32010KT 22/14 A3015 RMK A01 T02150143  RH  064%=      5-min Rain = 0
KBO1 120214Z 32011KT 22/14 A3015 RMK A01 T02150144  RH  064%=      5-min Rain = 0
KBO1 120215Z 32013KT 22/14 A3015 RMK A01 T02150144  RH  064%=      5-min Rain = 0
KBO1 120216Z 32012KT 21/14 A3016 RMK A01 T02140144  RH  064%=      5-min Rain = 0
KBO1 120217Z 32010KT 21/15 A3016 RMK A01 T02140145  RH  065%=      5-min Rain = 0
KBO1 120218Z 32008KT 21/15 A3016 RMK A01 T02130145  RH  065%=      5-min Rain = 0
KBO1 120219Z 32009KT 21/15 A3016 RMK A01 T02130145  RH  065%=      5-min Rain = 0
KBO1 120220Z 32008KT 21/15 A3016 RMK A01 T02130145  RH  065%=      5-min Rain = 0
KBO1 120221Z 32008KT 21/15 A3016 RMK A01 T02130145  RH  065%=      5-min Rain = 0
KBO1 120222Z 32008KT 21/15 A3017 RMK A01 T02130145  RH  065%=      5-min Rain = 0
KBO1 120223Z 32007KT 21/15 A3017 RMK A01 T02130146  RH  065%=      5-min Rain = 0
KBO1 120224Z 32006KT 21/15 A3017 RMK A01 T02130146  RH  066%=      5-min Rain = 0
KBO1 120225Z 32005KT 21/15 A3017 RMK A01 T02130146  RH  066%=      5-min Rain = 0
KBO1 120226Z 32005KT 21/15 A3017 RMK A01 T02130146  RH  066%=      5-min Rain = 0
KBO1 120227Z 32005KT 21/15 A3017 RMK A01 T02130146  RH  066%=      5-min Rain = 0
KBO1 120228Z 32006KT 21/15 A3017 RMK A01 T02130146  RH  066%=      5-min Rain = 0
KBO1 120229Z 33006KT 21/15 A3016 RMK A01 T02130146  RH  066%=      5-min Rain = 0
KBO1 120230Z 33006KT 21/15 A3016 RMK A01 T02130146  RH  066%=      5-min Rain = 0
KBO1 120231Z 35006KT 21/15 A3016 RMK A01 T02130146  RH  066%=      5-min Rain = 0
KBO1 120232Z 35006KT 21/15 A3016 RMK A01 T02120146  RH  066%=      5-min Rain = 0
KBO1 120233Z 35005KT 21/15 A3016 RMK A01 T02120146  RH  066%=      5-min Rain = 0
KBO1 120234Z 35005KT 21/15 A3016 RMK A01 T02120146  RH  066%=      5-min Rain = 0
KBO1 120235Z 35004KT 21/15 A3016 RMK A01 T02120147  RH  066%=      5-min Rain = 0
KBO1 120236Z 34005KT 21/15 A3016 RMK A01 T02120146  RH  066%=      5-min Rain = 0
KBO1 120237Z 35004KT 21/15 A3016 RMK A01 T02120146  RH  066%=      5-min Rain = 0
KBO1 120238Z 35005KT 21/15 A3016 RMK A01 T02120146  RH  066%=      5-min Rain = 0
KBO1 120239Z 34004KT 21/15 A3016 RMK A01 T02120146  RH  066%=      5-min Rain = 0
KBO1 120240Z 33004KT 21/15 A3016 RMK A01 T02120146  RH  066%=      5-min Rain = 0
KBO1 120241Z 33004KT 21/15 A3016 RMK A01 T02120146  RH  066%=      5-min Rain = 0
KBO1 120242Z 33004KT 21/15 A3016 RMK A01 T02120146  RH  066%=      5-min Rain = 0
KBO1 120243Z 32005KT 21/15 A3016 RMK A01 T02120146  RH  066%=      5-min Rain = 0
KBO1 120244Z 33004KT 21/15 A3016 RMK A01 T02120146  RH  066%=      5-min Rain = 0
KBO1 120245Z 32004KT 21/15 A3016 RMK A01 T02120146  RH  066%=      5-min Rain = 0
KBO1 120246Z 33005KT 21/15 A3016 RMK A01 T02120146  RH  066%=      5-min Rain = 0
KBO1 120247Z 33005KT 21/15 A3016 RMK A01 T02120146  RH  066%=      5-min Rain = 0
KBO1 120248Z 33005KT 21/15 A3016 RMK A01 T02120146  RH  066%=      5-min Rain = 0
KBO1 120249Z 34005KT 21/15 A3016 RMK A01 T02120146  RH  066%=      5-min Rain = 0
KBO1 120250Z 34005KT 21/15 A3016 RMK A01 T02120146  RH  066%=      5-min Rain = 0
KBO1 120251Z 35005KT 21/15 A3016 RMK A01 T02120146  RH  066%=      5-min Rain = 0
KBO1 120252Z 35005KT 21/15 A3016 RMK A01 T02120146  RH  066%=      5-min Rain = 0
KBO1 120253Z 35006KT 21/15 A3016 RMK A01 T02120146  RH  066%=      5-min Rain = 0
KBO1 120254Z 36006KT 21/15 A3016 RMK A01 T02120146  RH  066%=      5-min Rain = 0
KBO1 120255Z 36005KT 21/15 A3016 RMK A01 T02110146  RH  066%=      5-min Rain = 0
KBO1 120256Z 00005KT 21/15 A3016 RMK A01 T02120146  RH  066%=      5-min Rain = 0
KBO1 120257Z 00005KT 21/15 A3016 RMK A01 T02120146  RH  066%=      5-min Rain = 0
KBO1 120258Z 01005KT 21/15 A3016 RMK A01 T02110146  RH  066%=      5-min Rain = 0
KBO1 120259Z 00004KT 21/15 A3016 RMK A01 T02120146  RH  066%=      5-min Rain = 0
KBO1 120300Z 36004KT 21/15 A3016 RMK A01 T02120146  RH  066%=      5-min Rain = 0
KBO1 120301Z 36004KT 21/15 A3016 RMK A01 T02110146  RH  066%=      5-min Rain = 0
KBO1 120302Z 35006KT 21/15 A3016 RMK A01 T02110146  RH  066%=      5-min Rain = 0
KBO1 120303Z 36005KT 21/15 A3016 RMK A01 T02110146  RH  066%=      5-min Rain = 0
KBO1 120304Z 35005KT 21/15 A3016 RMK A01 T02110146  RH  066%=      5-min Rain = 0
KBO1 120305Z 35006KT 21/15 A3016 RMK A01 T02110146  RH  066%=      5-min Rain = 0
KBO1 120306Z 35005KT 21/15 A3016 RMK A01 T02110146  RH  066%=      5-min Rain = 0
KBO1 120307Z 36005KT 21/15 A3016 RMK A01 T02110146  RH  066%=      5-min Rain = 0
KBO1 120308Z 36005KT 21/15 A3016 RMK A01 T02110146  RH  066%=      5-min Rain = 0
KBO1 120309Z 00005KT 21/15 A3016 RMK A01 T02110146  RH  066%=      5-min Rain = 0
KBO1 120310Z 00004KT 21/15 A3017 RMK A01 T02110146  RH  066%=      5-min Rain = 0
KBO1 120311Z 02003KT 21/15 A3017 RMK A01 T02110146  RH  066%=      5-min Rain = 0
KBO1 120312Z 04002KT 21/15 A3017 RMK A01 T02110146  RH  066%=      5-min Rain = 0
KBO1 120313Z 07002KT 21/15 A3017 RMK A01 T02120146  RH  066%=      5-min Rain = 0
KBO1 120314Z 10002KT 21/15 A3017 RMK A01 T02120146  RH  066%=      5-min Rain = 0
KBO1 120315Z 12003KT 21/15 A3017 RMK A01 T02120149  RH  067%=      5-min Rain = 0
KBO1 120316Z 14004KT 21/15 A3018 RMK A01 T02120154  RH  069%=      5-min Rain = 0
KBO1 120317Z 14004KT 21/16 A3018 RMK A01 T02110159  RH  072%=      5-min Rain = 0
KBO1 120318Z 15006KT 21/16 A3018 RMK A01 T02090160  RH  073%=      5-min Rain = 0.01
KBO1 120319Z 14006KT 21/16 A3018 RMK A01 T02070162  RH  075%=      5-min Rain = 0
KBO1 120320Z 14006KT 21/16 A3018 RMK A01 T02060161  RH  076%=      5-min Rain = 0.01
KBO1 120321Z 13006KT 21/16 A3017 RMK A01 T02050161  RH  076%=      5-min Rain = 0
KBO1 120322Z 12005KT 20/16 A3017 RMK A01 T02040161  RH  076%=      5-min Rain = 0
KBO1 120323Z 12004KT 20/16 A3017 RMK A01 T02030161  RH  077%=      5-min Rain = 0
KBO1 120324Z 10004KT 20/16 A3017 RMK A01 T02030164  RH  078%=      5-min Rain = 0
KBO1 120325Z 08004KT 20/16 A3017 RMK A01 T02030160  RH  076%=      5-min Rain = 0
KBO1 120326Z 07004KT 20/16 A3017 RMK A01 T02030157  RH  075%=      5-min Rain = 0
KBO1 120327Z 06004KT 21/16 A3017 RMK A01 T02050156  RH  073%=      5-min Rain = 0
KBO1 120328Z 06004KT 21/16 A3017 RMK A01 T02070156  RH  072%=      5-min Rain = 0
KBO1 120329Z 05004KT 21/16 A3016 RMK A01 T02080162  RH  075%=      5-min Rain = 0
KBO1 120330Z 04004KT 21/16 A3016 RMK A01 T02080162  RH  075%=      5-min Rain = 0
KBO1 120331Z 04005KT 21/16 A3016 RMK A01 T02080164  RH  076%=      5-min Rain = 0
KBO1 120332Z 03005KT 21/17 A3016 RMK A01 T02070168  RH  078%=      5-min Rain = 0
KBO1 120333Z 03005KT 21/17 A3016 RMK A01 T02070167  RH  078%=      5-min Rain = 0
KBO1 120334Z 03004KT 21/17 A3016 RMK A01 T02060165  RH  077%=      5-min Rain = 0
KBO1 120335Z 03005KT 21/16 A3016 RMK A01 T02060160  RH  075%=      5-min Rain = 0
KBO1 120336Z 02005KT 21/16 A3016 RMK A01 T02070160  RH  075%=      5-min Rain = 0
KBO1 120337Z 03004KT 21/16 A3016 RMK A01 T02070164  RH  076%=      5-min Rain = 0
KBO1 120338Z 04003KT 21/16 A3016 RMK A01 T02070164  RH  076%=      5-min Rain = 0
KBO1 120339Z 04003KT 21/17 A3016 RMK A01 T02080166  RH  077%=      5-min Rain = 0
KBO1 120340Z 06003KT 21/17 A3016 RMK A01 T02080168  RH  078%=      5-min Rain = 0
KBO1 120341Z 07003KT 21/17 A3016 RMK A01 T02080168  RH  078%=      5-min Rain = 0
KBO1 120342Z 08004KT 21/17 A3016 RMK A01 T02080169  RH  078%=      5-min Rain = 0
KBO1 120343Z 08004KT 21/17 A3016 RMK A01 T02080168  RH  078%=      5-min Rain = 0
KBO1 120344Z 08005KT 21/17 A3017 RMK A01 T02080168  RH  078%=      5-min Rain = 0
KBO1 120345Z 08005KT 21/17 A3017 RMK A01 T02080168  RH  078%=      5-min Rain = 0
KBO1 120346Z 08005KT 21/17 A3017 RMK A01 T02070168  RH  078%=      5-min Rain = 0
KBO1 120347Z 08005KT 21/17 A3017 RMK A01 T02070167  RH  078%=      5-min Rain = 0
KBO1 120348Z 09006KT 21/17 A3017 RMK A01 T02070168  RH  078%=      5-min Rain = 0
KBO1 120349Z 09006KT 21/17 A3017 RMK A01 T02070167  RH  078%=      5-min Rain = 0
KBO1 120350Z 09006KT 21/17 A3017 RMK A01 T02070166  RH  077%=      5-min Rain = 0
KBO1 120351Z 09006KT 21/17 A3017 RMK A01 T02070167  RH  078%=      5-min Rain = 0
KBO1 120352Z 09006KT 21/17 A3017 RMK A01 T02070166  RH  077%=      5-min Rain = 0
KBO1 120353Z 09005KT 21/17 A3017 RMK A01 T02080167  RH  078%=      5-min Rain = 0
KBO1 120354Z 09005KT 21/17 A3017 RMK A01 T02080168  RH  078%=      5-min Rain = 0
KBO1 120355Z 09005KT 21/17 A3017 RMK A01 T02080168  RH  078%=      5-min Rain = 0
KBO1 120356Z 09006KT 21/17 A3017 RMK A01 T02080168  RH  078%=      5-min Rain = 0
KBO1 120357Z 09006KT 21/17 A3017 RMK A01 T02080168  RH  078%=      5-min Rain = 0
KBO1 120358Z 09005KT 21/17 A3017 RMK A01 T02090167  RH  077%=      5-min Rain = 0
KBO1 120359Z 08006KT 21/17 A3017 RMK A01 T02090166  RH  076%=      5-min Rain = 0
KBO1 120400Z 08005KT 21/16 A3017 RMK A01 T02100163  RH  075%=      5-min Rain = 0
KBO1 120401Z 08005KT 21/16 A3017 RMK A01 T02110163  RH  074%=      5-min Rain = 0
KBO1 120402Z 07005KT 21/16 A3017 RMK A01 T02110162  RH  073%=      5-min Rain = 0
KBO1 120403Z 07005KT 21/16 A3017 RMK A01 T02120163  RH  073%=      5-min Rain = 0
KBO1 120404Z 07004KT 21/16 A3017 RMK A01 T02120162  RH  073%=      5-min Rain = 0
KBO1 120405Z 07004KT 21/16 A3017 RMK A01 T02130161  RH  072%=      5-min Rain = 0
KBO1 120406Z 07003KT 21/16 A3017 RMK A01 T02140164  RH  073%=      5-min Rain = 0
KBO1 120407Z 07003KT 21/16 A3017 RMK A01 T02140163  RH  072%=      5-min Rain = 0
KBO1 120408Z 07003KT 22/16 A3017 RMK A01 T02150164  RH  073%=      5-min Rain = 0
KBO1 120409Z 08003KT 22/16 A3017 RMK A01 T02150164  RH  073%=      5-min Rain = 0
KBO1 120410Z 08003KT 22/17 A3017 RMK A01 T02150166  RH  073%=      5-min Rain = 0
KBO1 120411Z 12003KT 22/17 A3017 RMK A01 T02150168  RH  074%=      5-min Rain = 0
KBO1 120412Z 14004KT 22/17 A3017 RMK A01 T02150173  RH  077%=      5-min Rain = 0
KBO1 120413Z 13005KT 22/18 A3017 RMK A01 T02150176  RH  079%=      5-min Rain = 0
KBO1 120414Z 12007KT 21/18 A3018 RMK A01 T02130175  RH  079%=      5-min Rain = 0
KBO1 120415Z 13013G18KT 21/18 A3018 RMK A01 T02130175  RH  079%=      5-min Rain = 0
KBO1 120416Z 13016KT 21/17 A3018 RMK A01 T02120168  RH  076%=      5-min Rain = 0
KBO1 120417Z 15011KT 21/17 A3018 RMK A01 T02110167  RH  076%=      5-min Rain = 0
KBO1 120418Z 14013KT 21/16 A3018 RMK A01 T02090163  RH  075%=      5-min Rain = 0
KBO1 120419Z 14011KT 21/17 A3018 RMK A01 T02080165  RH  076%=      5-min Rain = 0
KBO1 120420Z 13008KT 21/17 A3018 RMK A01 T02070166  RH  077%=      5-min Rain = 0
KBO1 120421Z 13008KT 21/17 A3018 RMK A01 T02060166  RH  078%=      5-min Rain = 0
KBO1 120422Z 13008KT 21/16 A3018 RMK A01 T02060163  RH  076%=      5-min Rain = 0
KBO1 120423Z 13009KT 21/16 A3018 RMK A01 T02060163  RH  076%=      5-min Rain = 0
KBO1 120424Z 13010KT 21/16 A3018 RMK A01 T02070160  RH  075%=      5-min Rain = 0
KBO1 120425Z 13008KT 21/16 A3018 RMK A01 T02080162  RH  075%=      5-min Rain = 0
KBO1 120426Z 13009KT 21/16 A3018 RMK A01 T02070163  RH  076%=      5-min Rain = 0
KBO1 120427Z 13009KT 21/16 A3018 RMK A01 T02070162  RH  076%=      5-min Rain = 0
KBO1 120428Z 13008KT 21/16 A3018 RMK A01 T02060161  RH  075%=      5-min Rain = 0
KBO1 120429Z 12007KT 21/16 A3018 RMK A01 T02070161  RH  075%=      5-min Rain = 0
KBO1 120430Z 12006KT 21/16 A3018 RMK A01 T02080162  RH  075%=      5-min Rain = 0
KBO1 120431Z 12006KT 21/16 A3018 RMK A01 T02070162  RH  075%=      5-min Rain = 0
KBO1 120432Z 12007KT 21/16 A3018 RMK A01 T02070162  RH  075%=      5-min Rain = 0
KBO1 120433Z 13009KT 21/16 A3018 RMK A01 T02070163  RH  076%=      5-min Rain = 0
KBO1 120434Z 12010KT 21/16 A3018 RMK A01 T02070162  RH  076%=      5-min Rain = 0
KBO1 120435Z 11009KT 21/16 A3018 RMK A01 T02070160  RH  074%=      5-min Rain = 0
KBO1 120436Z 11008KT 21/16 A3018 RMK A01 T02080158  RH  073%=      5-min Rain = 0
KBO1 120437Z 11008KT 21/16 A3017 RMK A01 T02090160  RH  074%=      5-min Rain = 0
KBO1 120438Z 12009KT 21/16 A3017 RMK A01 T02090160  RH  074%=      5-min Rain = 0
KBO1 120439Z 11009KT 21/16 A3018 RMK A01 T02080161  RH  074%=      5-min Rain = 0
KBO1 120440Z 11008KT 21/16 A3017 RMK A01 T02080160  RH  074%=      5-min Rain = 0
KBO1 120441Z 12008KT 21/16 A3017 RMK A01 T02080161  RH  074%=      5-min Rain = 0
KBO1 120442Z 12010KT 21/16 A3018 RMK A01 T02080161  RH  074%=      5-min Rain = 0
KBO1 120443Z 12009KT 21/16 A3018 RMK A01 T02100158  RH  072%=      5-min Rain = 0
KBO1 120444Z 13007KT 21/16 A3018 RMK A01 T02120158  RH  071%=      5-min Rain = 0
KBO1 120445Z 13009KT 21/16 A3018 RMK A01 T02130161  RH  072%=      5-min Rain = 0
KBO1 120446Z 13009KT 21/16 A3018 RMK A01 T02120162  RH  073%=      5-min Rain = 0
KBO1 120447Z 13009KT 21/16 A3018 RMK A01 T02100162  RH  074%=      5-min Rain = 0
KBO1 120448Z 13009KT 21/16 A3018 RMK A01 T02100163  RH  075%=      5-min Rain = 0
KBO1 120449Z 13009KT 21/16 A3018 RMK A01 T02100163  RH  075%=      5-min Rain = 0
KBO1 120450Z 13009KT 21/16 A3018 RMK A01 T02090163  RH  075%=      5-min Rain = 0
KBO1 120451Z 13011KT 21/16 A3019 RMK A01 T02090163  RH  075%=      5-min Rain = 0
KBO1 120452Z 13011KT 21/16 A3019 RMK A01 T02090163  RH  075%=      5-min Rain = 0
KBO1 120453Z 13013KT 21/16 A3019 RMK A01 T02080163  RH  075%=      5-min Rain = 0
KBO1 120454Z 13012KT 21/16 A3019 RMK A01 T02080160  RH  074%=      5-min Rain = 0
KBO1 120455Z 13012KT 21/16 A3019 RMK A01 T02090161  RH  074%=      5-min Rain = 0
KBO1 120456Z 13012KT 21/16 A3019 RMK A01 T02090161  RH  074%=      5-min Rain = 0
KBO1 120457Z 13011KT 21/16 A3019 RMK A01 T02090161  RH  074%=      5-min Rain = 0
KBO1 120458Z 13011KT 21/16 A302 RMK A01 T02080163  RH  075%=      5-min Rain = 0
KBO1 120459Z 13010KT 21/16 A302 RMK A01 T02080163  RH  076%=      5-min Rain = 0
KBO1 120500Z 13010KT 21/16 A302 RMK A01 T02080164  RH  076%=      5-min Rain = 0

Page generated in 0.0584 seconds.